<?xml version="1.0" encoding="UTF-8" standalone="no" ?>
<gpx xmlns="http://www.topografix.com/GPX/1/1" xmlns:xsi="http://www.w3.org/2001/XMLSchema-instance" xsi:schemaLocation="http://www.topografix.com/GPX/1/1 http://www.topografix.com/GPX/1/1/gpx.xsd" version="1.1" creator="VisuGPX - https://www.visugpx.com">
  <metadata>
    <name>week end juin</name>
    <desc><![CDATA[samedi  27 dimanche 28  est ouest]]></desc>
  </metadata>
  <trk>
    <name><![CDATA[Tracé actuel: 28 JUIN 2015 07:35]]></name>
    <trkseg>
      <trkpt lat="43.13883" lon="5.91467">
        <ele>66.47</ele>
        <time>2015-06-28T05:35:22Z</time>
      </trkpt>
      <trkpt lat="43.13884" lon="5.91468">
        <ele>66.47</ele>
        <time>2015-06-28T05:35:24Z</time>
      </trkpt>
      <trkpt lat="43.13882" lon="5.91462">
        <ele>66.47</ele>
        <time>2015-06-28T05:35:41Z</time>
      </trkpt>
      <trkpt lat="43.13871" lon="5.91444">
        <ele>66.47</ele>
        <time>2015-06-28T05:36:03Z</time>
      </trkpt>
      <trkpt lat="43.13866" lon="5.91442">
        <ele>66.47</ele>
        <time>2015-06-28T05:36:23Z</time>
      </trkpt>
      <trkpt lat="43.13874" lon="5.91443">
        <ele>66.47</ele>
        <time>2015-06-28T05:36:39Z</time>
      </trkpt>
      <trkpt lat="43.13881" lon="5.91459">
        <ele>66.47</ele>
        <time>2015-06-28T05:37:00Z</time>
      </trkpt>
      <trkpt lat="43.1388" lon="5.9147">
        <ele>66.47</ele>
        <time>2015-06-28T05:37:24Z</time>
      </trkpt>
      <trkpt lat="43.13874" lon="5.91472">
        <ele>66.47</ele>
        <time>2015-06-28T05:37:50Z</time>
      </trkpt>
      <trkpt lat="43.13873" lon="5.91473">
        <ele>66.47</ele>
        <time>2015-06-28T05:38:04Z</time>
      </trkpt>
      <trkpt lat="43.13839" lon="5.91503">
        <ele>66.47</ele>
        <time>2015-06-28T05:38:19Z</time>
      </trkpt>
      <trkpt lat="43.13831" lon="5.91508">
        <ele>66.47</ele>
        <time>2015-06-28T05:38:29Z</time>
      </trkpt>
      <trkpt lat="43.13833" lon="5.91579">
        <ele>66.47</ele>
        <time>2015-06-28T05:38:44Z</time>
      </trkpt>
      <trkpt lat="43.13845" lon="5.91588">
        <ele>66.47</ele>
        <time>2015-06-28T05:38:49Z</time>
      </trkpt>
      <trkpt lat="43.13894" lon="5.91577">
        <ele>66.47</ele>
        <time>2015-06-28T05:39:03Z</time>
      </trkpt>
      <trkpt lat="43.13907" lon="5.9157">
        <ele>66.47</ele>
        <time>2015-06-28T05:39:13Z</time>
      </trkpt>
      <trkpt lat="43.13967" lon="5.91552">
        <ele>66.95</ele>
        <time>2015-06-28T05:39:26Z</time>
      </trkpt>
      <trkpt lat="43.14048" lon="5.91555">
        <ele>66.95</ele>
        <time>2015-06-28T05:39:45Z</time>
      </trkpt>
      <trkpt lat="43.1404" lon="5.91527">
        <ele>66.95</ele>
        <time>2015-06-28T05:39:54Z</time>
      </trkpt>
      <trkpt lat="43.14014" lon="5.91465">
        <ele>67.43</ele>
        <time>2015-06-28T05:40:04Z</time>
      </trkpt>
      <trkpt lat="43.13938" lon="5.91364">
        <ele>66.95</ele>
        <time>2015-06-28T05:40:20Z</time>
      </trkpt>
      <trkpt lat="43.13898" lon="5.91253">
        <ele>67.43</ele>
        <time>2015-06-28T05:40:33Z</time>
      </trkpt>
      <trkpt lat="43.13881" lon="5.91212">
        <ele>67.43</ele>
        <time>2015-06-28T05:40:39Z</time>
      </trkpt>
      <trkpt lat="43.139" lon="5.91181">
        <ele>67.43</ele>
        <time>2015-06-28T05:40:45Z</time>
      </trkpt>
      <trkpt lat="43.14075" lon="5.91075">
        <ele>67.43</ele>
        <time>2015-06-28T05:41:05Z</time>
      </trkpt>
      <trkpt lat="43.14179" lon="5.91035">
        <ele>67.43</ele>
        <time>2015-06-28T05:41:25Z</time>
      </trkpt>
      <trkpt lat="43.14198" lon="5.91021">
        <ele>67.43</ele>
        <time>2015-06-28T05:41:33Z</time>
      </trkpt>
      <trkpt lat="43.14165" lon="5.91036">
        <ele>67.43</ele>
        <time>2015-06-28T05:41:47Z</time>
      </trkpt>
      <trkpt lat="43.14131" lon="5.91055">
        <ele>66.95</ele>
        <time>2015-06-28T05:42:03Z</time>
      </trkpt>
      <trkpt lat="43.14125" lon="5.91061">
        <ele>66.95</ele>
        <time>2015-06-28T05:42:22Z</time>
      </trkpt>
      <trkpt lat="43.14081" lon="5.91021">
        <ele>66.47</ele>
        <time>2015-06-28T05:42:38Z</time>
      </trkpt>
      <trkpt lat="43.13977" lon="5.90937">
        <ele>65.99</ele>
        <time>2015-06-28T05:42:59Z</time>
      </trkpt>
      <trkpt lat="43.13944" lon="5.90914">
        <ele>65.99</ele>
        <time>2015-06-28T05:43:10Z</time>
      </trkpt>
      <trkpt lat="43.13881" lon="5.9088">
        <ele>65.51</ele>
        <time>2015-06-28T05:43:24Z</time>
      </trkpt>
      <trkpt lat="43.13691" lon="5.90707">
        <ele>106.36</ele>
        <time>2015-06-28T05:43:42Z</time>
      </trkpt>
      <trkpt lat="43.13604" lon="5.90657">
        <ele>105.4</ele>
        <time>2015-06-28T05:43:59Z</time>
      </trkpt>
      <trkpt lat="43.13501" lon="5.90592">
        <ele>98.19</ele>
        <time>2015-06-28T05:44:18Z</time>
      </trkpt>
      <trkpt lat="43.13365" lon="5.90506">
        <ele>86.66</ele>
        <time>2015-06-28T05:44:41Z</time>
      </trkpt>
      <trkpt lat="43.13269" lon="5.90443">
        <ele>85.21</ele>
        <time>2015-06-28T05:44:59Z</time>
      </trkpt>
      <trkpt lat="43.13129" lon="5.9037">
        <ele>74.64</ele>
        <time>2015-06-28T05:45:19Z</time>
      </trkpt>
      <trkpt lat="43.1301" lon="5.9029">
        <ele>55.89</ele>
        <time>2015-06-28T05:45:39Z</time>
      </trkpt>
      <trkpt lat="43.12927" lon="5.90207">
        <ele>46.76</ele>
        <time>2015-06-28T05:45:58Z</time>
      </trkpt>
      <trkpt lat="43.12919" lon="5.90195">
        <ele>44.36</ele>
        <time>2015-06-28T05:46:02Z</time>
      </trkpt>
      <trkpt lat="43.12915" lon="5.90196">
        <ele>42.44</ele>
        <time>2015-06-28T05:46:06Z</time>
      </trkpt>
      <trkpt lat="43.12909" lon="5.90203">
        <ele>41.47</ele>
        <time>2015-06-28T05:46:09Z</time>
      </trkpt>
      <trkpt lat="43.12893" lon="5.90245">
        <ele>40.51</ele>
        <time>2015-06-28T05:46:20Z</time>
      </trkpt>
      <trkpt lat="43.12896" lon="5.90241">
        <ele>39.07</ele>
        <time>2015-06-28T05:46:38Z</time>
      </trkpt>
      <trkpt lat="43.1289" lon="5.90258">
        <ele>39.07</ele>
        <time>2015-06-28T05:46:45Z</time>
      </trkpt>
      <trkpt lat="43.12856" lon="5.90383">
        <ele>39.07</ele>
        <time>2015-06-28T05:47:03Z</time>
      </trkpt>
      <trkpt lat="43.12827" lon="5.90553">
        <ele>39.07</ele>
        <time>2015-06-28T05:47:21Z</time>
      </trkpt>
      <trkpt lat="43.12832" lon="5.9065">
        <ele>36.67</ele>
        <time>2015-06-28T05:47:34Z</time>
      </trkpt>
      <trkpt lat="43.12828" lon="5.90668">
        <ele>35.23</ele>
        <time>2015-06-28T05:47:43Z</time>
      </trkpt>
      <trkpt lat="43.12816" lon="5.9067">
        <ele>34.26</ele>
        <time>2015-06-28T05:47:47Z</time>
      </trkpt>
      <trkpt lat="43.12729" lon="5.90624">
        <ele>32.34</ele>
        <time>2015-06-28T05:48:06Z</time>
      </trkpt>
      <trkpt lat="43.12656" lon="5.90614">
        <ele>31.86</ele>
        <time>2015-06-28T05:48:21Z</time>
      </trkpt>
      <trkpt lat="43.12556" lon="5.90572">
        <ele>31.38</ele>
        <time>2015-06-28T05:48:38Z</time>
      </trkpt>
      <trkpt lat="43.12487" lon="5.90414">
        <ele>9.27</ele>
        <time>2015-06-28T05:48:57Z</time>
      </trkpt>
      <trkpt lat="43.12421" lon="5.90383">
        <ele>8.31</ele>
        <time>2015-06-28T05:49:16Z</time>
      </trkpt>
      <trkpt lat="43.12362" lon="5.90339">
        <ele>9.75</ele>
        <time>2015-06-28T05:49:30Z</time>
      </trkpt>
      <trkpt lat="43.12352" lon="5.90377">
        <ele>8.79</ele>
        <time>2015-06-28T05:49:38Z</time>
      </trkpt>
      <trkpt lat="43.12361" lon="5.9039">
        <ele>8.79</ele>
        <time>2015-06-28T05:49:41Z</time>
      </trkpt>
      <trkpt lat="43.12423" lon="5.90463">
        <ele>8.79</ele>
        <time>2015-06-28T05:49:58Z</time>
      </trkpt>
      <trkpt lat="43.1247" lon="5.90565">
        <ele>9.27</ele>
        <time>2015-06-28T05:50:12Z</time>
      </trkpt>
      <trkpt lat="43.12489" lon="5.90709">
        <ele>8.79</ele>
        <time>2015-06-28T05:50:32Z</time>
      </trkpt>
      <trkpt lat="43.12518" lon="5.90807">
        <ele>9.27</ele>
        <time>2015-06-28T05:50:49Z</time>
      </trkpt>
      <trkpt lat="43.12568" lon="5.90888">
        <ele>11.19</ele>
        <time>2015-06-28T05:51:08Z</time>
      </trkpt>
      <trkpt lat="43.12616" lon="5.9099">
        <ele>13.12</ele>
        <time>2015-06-28T05:51:24Z</time>
      </trkpt>
      <trkpt lat="43.12647" lon="5.9112">
        <ele>12.15</ele>
        <time>2015-06-28T05:51:40Z</time>
      </trkpt>
      <trkpt lat="43.12665" lon="5.91281">
        <ele>12.63</ele>
        <time>2015-06-28T05:52:01Z</time>
      </trkpt>
      <trkpt lat="43.12666" lon="5.91347">
        <ele>11.67</ele>
        <time>2015-06-28T05:52:10Z</time>
      </trkpt>
      <trkpt lat="43.1267" lon="5.91461">
        <ele>14.08</ele>
        <time>2015-06-28T05:52:27Z</time>
      </trkpt>
      <trkpt lat="43.12659" lon="5.91562">
        <ele>15.52</ele>
        <time>2015-06-28T05:52:41Z</time>
      </trkpt>
      <trkpt lat="43.12653" lon="5.9167">
        <ele>20.32</ele>
        <time>2015-06-28T05:52:58Z</time>
      </trkpt>
      <trkpt lat="43.12662" lon="5.91745">
        <ele>20.81</ele>
        <time>2015-06-28T05:53:11Z</time>
      </trkpt>
      <trkpt lat="43.12679" lon="5.91788">
        <ele>21.77</ele>
        <time>2015-06-28T05:53:21Z</time>
      </trkpt>
      <trkpt lat="43.12711" lon="5.91895">
        <ele>25.61</ele>
        <time>2015-06-28T05:53:41Z</time>
      </trkpt>
      <trkpt lat="43.12705" lon="5.92013">
        <ele>27.05</ele>
        <time>2015-06-28T05:53:58Z</time>
      </trkpt>
      <trkpt lat="43.1267" lon="5.92137">
        <ele>28.5</ele>
        <time>2015-06-28T05:54:16Z</time>
      </trkpt>
      <trkpt lat="43.12627" lon="5.9226">
        <ele>29.94</ele>
        <time>2015-06-28T05:54:34Z</time>
      </trkpt>
      <trkpt lat="43.12572" lon="5.92394">
        <ele>31.38</ele>
        <time>2015-06-28T05:54:54Z</time>
      </trkpt>
      <trkpt lat="43.12506" lon="5.92557">
        <ele>30.9</ele>
        <time>2015-06-28T05:55:18Z</time>
      </trkpt>
      <trkpt lat="43.12451" lon="5.92714">
        <ele>31.86</ele>
        <time>2015-06-28T05:55:40Z</time>
      </trkpt>
      <trkpt lat="43.12352" lon="5.92903">
        <ele>30.9</ele>
        <time>2015-06-28T05:56:07Z</time>
      </trkpt>
      <trkpt lat="43.12347" lon="5.92916">
        <ele>30.9</ele>
        <time>2015-06-28T05:56:09Z</time>
      </trkpt>
      <trkpt lat="43.12327" lon="5.92939">
        <ele>32.34</ele>
        <time>2015-06-28T05:56:15Z</time>
      </trkpt>
      <trkpt lat="43.12314" lon="5.92934">
        <ele>32.82</ele>
        <time>2015-06-28T05:56:19Z</time>
      </trkpt>
      <trkpt lat="43.12267" lon="5.92908">
        <ele>32.82</ele>
        <time>2015-06-28T05:56:32Z</time>
      </trkpt>
      <trkpt lat="43.1219" lon="5.92999">
        <ele>30.9</ele>
        <time>2015-06-28T05:56:46Z</time>
      </trkpt>
      <trkpt lat="43.12117" lon="5.93125">
        <ele>26.57</ele>
        <time>2015-06-28T05:57:06Z</time>
      </trkpt>
      <trkpt lat="43.12048" lon="5.93231">
        <ele>23.21</ele>
        <time>2015-06-28T05:57:25Z</time>
      </trkpt>
      <trkpt lat="43.12009" lon="5.93335">
        <ele>23.69</ele>
        <time>2015-06-28T05:57:42Z</time>
      </trkpt>
      <trkpt lat="43.11958" lon="5.93428">
        <ele>23.21</ele>
        <time>2015-06-28T05:57:59Z</time>
      </trkpt>
      <trkpt lat="43.11919" lon="5.93525">
        <ele>20.81</ele>
        <time>2015-06-28T05:58:19Z</time>
      </trkpt>
      <trkpt lat="43.11865" lon="5.93584">
        <ele>20.81</ele>
        <time>2015-06-28T05:58:35Z</time>
      </trkpt>
      <trkpt lat="43.1183" lon="5.93607">
        <ele>22.25</ele>
        <time>2015-06-28T05:58:48Z</time>
      </trkpt>
      <trkpt lat="43.11783" lon="5.93668">
        <ele>23.21</ele>
        <time>2015-06-28T05:59:00Z</time>
      </trkpt>
      <trkpt lat="43.11764" lon="5.93687">
        <ele>23.21</ele>
        <time>2015-06-28T05:59:05Z</time>
      </trkpt>
      <trkpt lat="43.11746" lon="5.93729">
        <ele>22.73</ele>
        <time>2015-06-28T05:59:15Z</time>
      </trkpt>
      <trkpt lat="43.11743" lon="5.93733">
        <ele>22.73</ele>
        <time>2015-06-28T05:59:16Z</time>
      </trkpt>
      <trkpt lat="43.11764" lon="5.93791">
        <ele>22.73</ele>
        <time>2015-06-28T05:59:31Z</time>
      </trkpt>
      <trkpt lat="43.11805" lon="5.93848">
        <ele>23.21</ele>
        <time>2015-06-28T05:59:46Z</time>
      </trkpt>
      <trkpt lat="43.11814" lon="5.93924">
        <ele>24.17</ele>
        <time>2015-06-28T06:00:00Z</time>
      </trkpt>
      <trkpt lat="43.11826" lon="5.94024">
        <ele>25.61</ele>
        <time>2015-06-28T06:00:16Z</time>
      </trkpt>
      <trkpt lat="43.11876" lon="5.94135">
        <ele>24.65</ele>
        <time>2015-06-28T06:00:30Z</time>
      </trkpt>
      <trkpt lat="43.11879" lon="5.94143">
        <ele>24.65</ele>
        <time>2015-06-28T06:00:31Z</time>
      </trkpt>
      <trkpt lat="43.11885" lon="5.94185">
        <ele>25.13</ele>
        <time>2015-06-28T06:00:37Z</time>
      </trkpt>
      <trkpt lat="43.1188" lon="5.94284">
        <ele>24.65</ele>
        <time>2015-06-28T06:00:51Z</time>
      </trkpt>
      <trkpt lat="43.11872" lon="5.94367">
        <ele>24.65</ele>
        <time>2015-06-28T06:01:06Z</time>
      </trkpt>
      <trkpt lat="43.11881" lon="5.94498">
        <ele>24.65</ele>
        <time>2015-06-28T06:01:24Z</time>
      </trkpt>
      <trkpt lat="43.11876" lon="5.94574">
        <ele>25.13</ele>
        <time>2015-06-28T06:01:37Z</time>
      </trkpt>
      <trkpt lat="43.11919" lon="5.9465">
        <ele>26.09</ele>
        <time>2015-06-28T06:01:54Z</time>
      </trkpt>
      <trkpt lat="43.11958" lon="5.94705">
        <ele>27.05</ele>
        <time>2015-06-28T06:02:10Z</time>
      </trkpt>
      <trkpt lat="43.11977" lon="5.94806">
        <ele>26.57</ele>
        <time>2015-06-28T06:02:25Z</time>
      </trkpt>
      <trkpt lat="43.11989" lon="5.94839">
        <ele>26.57</ele>
        <time>2015-06-28T06:02:30Z</time>
      </trkpt>
      <trkpt lat="43.11994" lon="5.94871">
        <ele>26.57</ele>
        <time>2015-06-28T06:02:34Z</time>
      </trkpt>
      <trkpt lat="43.12005" lon="5.95028">
        <ele>26.09</ele>
        <time>2015-06-28T06:02:55Z</time>
      </trkpt>
      <trkpt lat="43.12053" lon="5.9516">
        <ele>25.13</ele>
        <time>2015-06-28T06:03:14Z</time>
      </trkpt>
      <trkpt lat="43.12087" lon="5.95281">
        <ele>22.25</ele>
        <time>2015-06-28T06:03:31Z</time>
      </trkpt>
      <trkpt lat="43.1214" lon="5.95413">
        <ele>21.29</ele>
        <time>2015-06-28T06:03:53Z</time>
      </trkpt>
      <trkpt lat="43.12187" lon="5.95545">
        <ele>20.81</ele>
        <time>2015-06-28T06:04:15Z</time>
      </trkpt>
      <trkpt lat="43.12218" lon="5.95636">
        <ele>23.21</ele>
        <time>2015-06-28T06:04:31Z</time>
      </trkpt>
      <trkpt lat="43.12248" lon="5.95758">
        <ele>19.84</ele>
        <time>2015-06-28T06:04:52Z</time>
      </trkpt>
      <trkpt lat="43.12304" lon="5.9591">
        <ele>22.25</ele>
        <time>2015-06-28T06:05:17Z</time>
      </trkpt>
      <trkpt lat="43.12337" lon="5.96031">
        <ele>24.65</ele>
        <time>2015-06-28T06:05:37Z</time>
      </trkpt>
      <trkpt lat="43.12339" lon="5.96146">
        <ele>26.57</ele>
        <time>2015-06-28T06:05:56Z</time>
      </trkpt>
      <trkpt lat="43.12331" lon="5.96245">
        <ele>26.57</ele>
        <time>2015-06-28T06:06:16Z</time>
      </trkpt>
      <trkpt lat="43.12304" lon="5.96346">
        <ele>26.09</ele>
        <time>2015-06-28T06:06:34Z</time>
      </trkpt>
      <trkpt lat="43.12273" lon="5.96499">
        <ele>26.57</ele>
        <time>2015-06-28T06:06:54Z</time>
      </trkpt>
      <trkpt lat="43.12273" lon="5.96505">
        <ele>26.57</ele>
        <time>2015-06-28T06:06:55Z</time>
      </trkpt>
      <trkpt lat="43.12285" lon="5.96598">
        <ele>26.57</ele>
        <time>2015-06-28T06:07:12Z</time>
      </trkpt>
      <trkpt lat="43.12275" lon="5.96706">
        <ele>26.09</ele>
        <time>2015-06-28T06:07:26Z</time>
      </trkpt>
      <trkpt lat="43.12238" lon="5.96743">
        <ele>26.09</ele>
        <time>2015-06-28T06:07:39Z</time>
      </trkpt>
      <trkpt lat="43.12192" lon="5.96783">
        <ele>26.57</ele>
        <time>2015-06-28T06:07:55Z</time>
      </trkpt>
      <trkpt lat="43.12125" lon="5.96857">
        <ele>26.57</ele>
        <time>2015-06-28T06:08:15Z</time>
      </trkpt>
      <trkpt lat="43.11941" lon="5.96983">
        <ele>22.73</ele>
        <time>2015-06-28T06:08:40Z</time>
      </trkpt>
      <trkpt lat="43.1188" lon="5.97069">
        <ele>23.21</ele>
        <time>2015-06-28T06:09:01Z</time>
      </trkpt>
      <trkpt lat="43.11773" lon="5.97177">
        <ele>27.05</ele>
        <time>2015-06-28T06:09:20Z</time>
      </trkpt>
      <trkpt lat="43.11738" lon="5.97266">
        <ele>27.05</ele>
        <time>2015-06-28T06:09:36Z</time>
      </trkpt>
      <trkpt lat="43.11715" lon="5.97375">
        <ele>27.05</ele>
        <time>2015-06-28T06:09:52Z</time>
      </trkpt>
      <trkpt lat="43.11697" lon="5.97503">
        <ele>26.09</ele>
        <time>2015-06-28T06:10:08Z</time>
      </trkpt>
      <trkpt lat="43.11638" lon="5.97647">
        <ele>26.09</ele>
        <time>2015-06-28T06:10:28Z</time>
      </trkpt>
      <trkpt lat="43.11613" lon="5.97795">
        <ele>27.05</ele>
        <time>2015-06-28T06:10:48Z</time>
      </trkpt>
      <trkpt lat="43.11581" lon="5.97933">
        <ele>22.25</ele>
        <time>2015-06-28T06:11:07Z</time>
      </trkpt>
      <trkpt lat="43.11556" lon="5.9807">
        <ele>21.29</ele>
        <time>2015-06-28T06:11:25Z</time>
      </trkpt>
      <trkpt lat="43.1155" lon="5.98138">
        <ele>19.36</ele>
        <time>2015-06-28T06:11:38Z</time>
      </trkpt>
      <trkpt lat="43.11546" lon="5.98253">
        <ele>20.81</ele>
        <time>2015-06-28T06:11:56Z</time>
      </trkpt>
      <trkpt lat="43.11507" lon="5.98382">
        <ele>21.29</ele>
        <time>2015-06-28T06:12:18Z</time>
      </trkpt>
      <trkpt lat="43.11443" lon="5.98475">
        <ele>25.13</ele>
        <time>2015-06-28T06:12:38Z</time>
      </trkpt>
      <trkpt lat="43.11405" lon="5.98552">
        <ele>25.13</ele>
        <time>2015-06-28T06:12:54Z</time>
      </trkpt>
      <trkpt lat="43.11342" lon="5.98646">
        <ele>25.61</ele>
        <time>2015-06-28T06:13:14Z</time>
      </trkpt>
      <trkpt lat="43.11275" lon="5.98776">
        <ele>26.09</ele>
        <time>2015-06-28T06:13:32Z</time>
      </trkpt>
      <trkpt lat="43.11224" lon="5.98937">
        <ele>25.13</ele>
        <time>2015-06-28T06:13:51Z</time>
      </trkpt>
      <trkpt lat="43.11186" lon="5.99048">
        <ele>24.65</ele>
        <time>2015-06-28T06:14:06Z</time>
      </trkpt>
      <trkpt lat="43.11177" lon="5.99181">
        <ele>24.65</ele>
        <time>2015-06-28T06:14:24Z</time>
      </trkpt>
      <trkpt lat="43.11174" lon="5.99353">
        <ele>23.69</ele>
        <time>2015-06-28T06:14:44Z</time>
      </trkpt>
      <trkpt lat="43.11143" lon="5.99472">
        <ele>24.65</ele>
        <time>2015-06-28T06:15:02Z</time>
      </trkpt>
      <trkpt lat="43.11089" lon="5.99611">
        <ele>28.98</ele>
        <time>2015-06-28T06:15:26Z</time>
      </trkpt>
      <trkpt lat="43.11041" lon="5.99738">
        <ele>30.9</ele>
        <time>2015-06-28T06:15:49Z</time>
      </trkpt>
      <trkpt lat="43.11007" lon="5.99869">
        <ele>31.86</ele>
        <time>2015-06-28T06:16:07Z</time>
      </trkpt>
      <trkpt lat="43.10991" lon="5.99926">
        <ele>31.86</ele>
        <time>2015-06-28T06:16:19Z</time>
      </trkpt>
      <trkpt lat="43.1099" lon="5.99926">
        <ele>32.34</ele>
        <time>2015-06-28T06:16:21Z</time>
      </trkpt>
      <trkpt lat="43.11009" lon="5.9993">
        <ele>33.78</ele>
        <time>2015-06-28T06:16:32Z</time>
      </trkpt>
      <trkpt lat="43.11043" lon="5.99985">
        <ele>35.23</ele>
        <time>2015-06-28T06:16:45Z</time>
      </trkpt>
      <trkpt lat="43.11108" lon="6.00086">
        <ele>38.59</ele>
        <time>2015-06-28T06:16:58Z</time>
      </trkpt>
      <trkpt lat="43.11207" lon="6.00104">
        <ele>44.36</ele>
        <time>2015-06-28T06:17:17Z</time>
      </trkpt>
      <trkpt lat="43.11358" lon="6.00136">
        <ele>43.4</ele>
        <time>2015-06-28T06:17:44Z</time>
      </trkpt>
      <trkpt lat="43.1143" lon="6.00154">
        <ele>43.88</ele>
        <time>2015-06-28T06:17:58Z</time>
      </trkpt>
      <trkpt lat="43.11456" lon="6.00164">
        <ele>44.36</ele>
        <time>2015-06-28T06:18:03Z</time>
      </trkpt>
      <trkpt lat="43.11473" lon="6.00177">
        <ele>45.8</ele>
        <time>2015-06-28T06:18:07Z</time>
      </trkpt>
      <trkpt lat="43.11544" lon="6.00278">
        <ele>54.93</ele>
        <time>2015-06-28T06:18:27Z</time>
      </trkpt>
      <trkpt lat="43.11624" lon="6.00341">
        <ele>55.41</ele>
        <time>2015-06-28T06:18:44Z</time>
      </trkpt>
      <trkpt lat="43.11647" lon="6.00358">
        <ele>55.41</ele>
        <time>2015-06-28T06:18:49Z</time>
      </trkpt>
      <trkpt lat="43.11751" lon="6.00432">
        <ele>52.05</ele>
        <time>2015-06-28T06:19:10Z</time>
      </trkpt>
      <trkpt lat="43.11836" lon="6.00486">
        <ele>51.09</ele>
        <time>2015-06-28T06:19:28Z</time>
      </trkpt>
      <trkpt lat="43.11914" lon="6.00542">
        <ele>50.61</ele>
        <time>2015-06-28T06:19:48Z</time>
      </trkpt>
      <trkpt lat="43.11953" lon="6.0059">
        <ele>51.57</ele>
        <time>2015-06-28T06:20:03Z</time>
      </trkpt>
      <trkpt lat="43.11979" lon="6.0074">
        <ele>54.45</ele>
        <time>2015-06-28T06:20:21Z</time>
      </trkpt>
      <trkpt lat="43.12007" lon="6.00892">
        <ele>53.97</ele>
        <time>2015-06-28T06:20:41Z</time>
      </trkpt>
      <trkpt lat="43.12034" lon="6.01058">
        <ele>44.84</ele>
        <time>2015-06-28T06:21:00Z</time>
      </trkpt>
      <trkpt lat="43.1203" lon="6.01064">
        <ele>42.92</ele>
        <time>2015-06-28T06:21:04Z</time>
      </trkpt>
      <trkpt lat="43.12049" lon="6.01083">
        <ele>42.92</ele>
        <time>2015-06-28T06:21:14Z</time>
      </trkpt>
      <trkpt lat="43.12071" lon="6.01144">
        <ele>41.47</ele>
        <time>2015-06-28T06:21:26Z</time>
      </trkpt>
      <trkpt lat="43.12073" lon="6.01147">
        <ele>41.47</ele>
        <time>2015-06-28T06:21:27Z</time>
      </trkpt>
      <trkpt lat="43.12087" lon="6.01157">
        <ele>41.47</ele>
        <time>2015-06-28T06:21:31Z</time>
      </trkpt>
      <trkpt lat="43.12203" lon="6.01204">
        <ele>42.44</ele>
        <time>2015-06-28T06:21:56Z</time>
      </trkpt>
      <trkpt lat="43.12277" lon="6.01242">
        <ele>42.44</ele>
        <time>2015-06-28T06:22:13Z</time>
      </trkpt>
      <trkpt lat="43.12281" lon="6.01245">
        <ele>42.44</ele>
        <time>2015-06-28T06:22:14Z</time>
      </trkpt>
      <trkpt lat="43.12351" lon="6.01383">
        <ele>41.95</ele>
        <time>2015-06-28T06:22:38Z</time>
      </trkpt>
      <trkpt lat="43.12405" lon="6.01511">
        <ele>41.95</ele>
        <time>2015-06-28T06:23:00Z</time>
      </trkpt>
      <trkpt lat="43.12475" lon="6.01639">
        <ele>43.88</ele>
        <time>2015-06-28T06:23:22Z</time>
      </trkpt>
      <trkpt lat="43.1252" lon="6.01708">
        <ele>41.47</ele>
        <time>2015-06-28T06:23:38Z</time>
      </trkpt>
      <trkpt lat="43.12562" lon="6.01767">
        <ele>40.03</ele>
        <time>2015-06-28T06:23:50Z</time>
      </trkpt>
      <trkpt lat="43.12558" lon="6.01807">
        <ele>40.03</ele>
        <time>2015-06-28T06:23:57Z</time>
      </trkpt>
      <trkpt lat="43.12434" lon="6.01934">
        <ele>21.29</ele>
        <time>2015-06-28T06:24:09Z</time>
      </trkpt>
      <trkpt lat="43.12444" lon="6.01982">
        <ele>12.15</ele>
        <time>2015-06-28T06:24:17Z</time>
      </trkpt>
      <trkpt lat="43.12421" lon="6.02134">
        <ele>4.94</ele>
        <time>2015-06-28T06:24:40Z</time>
      </trkpt>
      <trkpt lat="43.12394" lon="6.02272">
        <ele>2.54</ele>
        <time>2015-06-28T06:25:02Z</time>
      </trkpt>
      <trkpt lat="43.12358" lon="6.02423">
        <ele>2.06</ele>
        <time>2015-06-28T06:25:25Z</time>
      </trkpt>
      <trkpt lat="43.12309" lon="6.02562">
        <ele>5.91</ele>
        <time>2015-06-28T06:25:48Z</time>
      </trkpt>
      <trkpt lat="43.12248" lon="6.02726">
        <ele>11.19</ele>
        <time>2015-06-28T06:26:15Z</time>
      </trkpt>
      <trkpt lat="43.12228" lon="6.02858">
        <ele>13.6</ele>
        <time>2015-06-28T06:26:35Z</time>
      </trkpt>
      <trkpt lat="43.12217" lon="6.02942">
        <ele>14.56</ele>
        <time>2015-06-28T06:26:47Z</time>
      </trkpt>
      <trkpt lat="43.12218" lon="6.0303">
        <ele>14.56</ele>
        <time>2015-06-28T06:27:00Z</time>
      </trkpt>
      <trkpt lat="43.12223" lon="6.03053">
        <ele>14.56</ele>
        <time>2015-06-28T06:27:04Z</time>
      </trkpt>
      <trkpt lat="43.12244" lon="6.03098">
        <ele>15.52</ele>
        <time>2015-06-28T06:27:12Z</time>
      </trkpt>
      <trkpt lat="43.12249" lon="6.03206">
        <ele>19.84</ele>
        <time>2015-06-28T06:27:29Z</time>
      </trkpt>
      <trkpt lat="43.12271" lon="6.03342">
        <ele>22.73</ele>
        <time>2015-06-28T06:27:50Z</time>
      </trkpt>
      <trkpt lat="43.1228" lon="6.03442">
        <ele>25.13</ele>
        <time>2015-06-28T06:28:08Z</time>
      </trkpt>
      <trkpt lat="43.12327" lon="6.0356">
        <ele>24.65</ele>
        <time>2015-06-28T06:28:28Z</time>
      </trkpt>
      <trkpt lat="43.12369" lon="6.03697">
        <ele>22.73</ele>
        <time>2015-06-28T06:28:48Z</time>
      </trkpt>
      <trkpt lat="43.12369" lon="6.03734">
        <ele>21.77</ele>
        <time>2015-06-28T06:28:54Z</time>
      </trkpt>
      <trkpt lat="43.12393" lon="6.03823">
        <ele>23.21</ele>
        <time>2015-06-28T06:29:08Z</time>
      </trkpt>
      <trkpt lat="43.12389" lon="6.03946">
        <ele>23.21</ele>
        <time>2015-06-28T06:29:27Z</time>
      </trkpt>
      <trkpt lat="43.12387" lon="6.04103">
        <ele>21.77</ele>
        <time>2015-06-28T06:29:49Z</time>
      </trkpt>
      <trkpt lat="43.12373" lon="6.04252">
        <ele>22.25</ele>
        <time>2015-06-28T06:30:10Z</time>
      </trkpt>
      <trkpt lat="43.12326" lon="6.04387">
        <ele>23.69</ele>
        <time>2015-06-28T06:30:31Z</time>
      </trkpt>
      <trkpt lat="43.12289" lon="6.04532">
        <ele>24.17</ele>
        <time>2015-06-28T06:30:53Z</time>
      </trkpt>
      <trkpt lat="43.12256" lon="6.04662">
        <ele>26.09</ele>
        <time>2015-06-28T06:31:14Z</time>
      </trkpt>
      <trkpt lat="43.12238" lon="6.04773">
        <ele>28.98</ele>
        <time>2015-06-28T06:31:31Z</time>
      </trkpt>
      <trkpt lat="43.12207" lon="6.04914">
        <ele>31.38</ele>
        <time>2015-06-28T06:31:53Z</time>
      </trkpt>
      <trkpt lat="43.12174" lon="6.05078">
        <ele>32.82</ele>
        <time>2015-06-28T06:32:19Z</time>
      </trkpt>
      <trkpt lat="43.12138" lon="6.05232">
        <ele>33.3</ele>
        <time>2015-06-28T06:32:43Z</time>
      </trkpt>
      <trkpt lat="43.12101" lon="6.05384">
        <ele>33.78</ele>
        <time>2015-06-28T06:33:07Z</time>
      </trkpt>
      <trkpt lat="43.12077" lon="6.05465">
        <ele>34.26</ele>
        <time>2015-06-28T06:33:20Z</time>
      </trkpt>
      <trkpt lat="43.12085" lon="6.05603">
        <ele>33.3</ele>
        <time>2015-06-28T06:33:41Z</time>
      </trkpt>
      <trkpt lat="43.121" lon="6.05702">
        <ele>33.3</ele>
        <time>2015-06-28T06:33:57Z</time>
      </trkpt>
      <trkpt lat="43.12135" lon="6.05825">
        <ele>34.74</ele>
        <time>2015-06-28T06:34:18Z</time>
      </trkpt>
      <trkpt lat="43.12169" lon="6.05963">
        <ele>35.23</ele>
        <time>2015-06-28T06:34:38Z</time>
      </trkpt>
      <trkpt lat="43.12185" lon="6.06125">
        <ele>36.19</ele>
        <time>2015-06-28T06:35:01Z</time>
      </trkpt>
      <trkpt lat="43.12195" lon="6.06215">
        <ele>37.63</ele>
        <time>2015-06-28T06:35:16Z</time>
      </trkpt>
      <trkpt lat="43.12197" lon="6.06294">
        <ele>37.63</ele>
        <time>2015-06-28T06:35:28Z</time>
      </trkpt>
      <trkpt lat="43.1223" lon="6.06421">
        <ele>38.59</ele>
        <time>2015-06-28T06:35:48Z</time>
      </trkpt>
      <trkpt lat="43.12249" lon="6.06562">
        <ele>40.03</ele>
        <time>2015-06-28T06:36:10Z</time>
      </trkpt>
      <trkpt lat="43.12241" lon="6.06706">
        <ele>40.99</ele>
        <time>2015-06-28T06:36:32Z</time>
      </trkpt>
      <trkpt lat="43.12227" lon="6.06861">
        <ele>42.92</ele>
        <time>2015-06-28T06:36:54Z</time>
      </trkpt>
      <trkpt lat="43.12218" lon="6.06973">
        <ele>44.84</ele>
        <time>2015-06-28T06:37:12Z</time>
      </trkpt>
      <trkpt lat="43.12216" lon="6.07031">
        <ele>46.76</ele>
        <time>2015-06-28T06:37:25Z</time>
      </trkpt>
      <trkpt lat="43.12202" lon="6.07181">
        <ele>49.65</ele>
        <time>2015-06-28T06:37:44Z</time>
      </trkpt>
      <trkpt lat="43.12188" lon="6.07329">
        <ele>52.05</ele>
        <time>2015-06-28T06:38:03Z</time>
      </trkpt>
      <trkpt lat="43.12176" lon="6.07355">
        <ele>53.49</ele>
        <time>2015-06-28T06:38:09Z</time>
      </trkpt>
      <trkpt lat="43.12162" lon="6.07357">
        <ele>53.97</ele>
        <time>2015-06-28T06:38:13Z</time>
      </trkpt>
      <trkpt lat="43.12058" lon="6.07322">
        <ele>56.37</ele>
        <time>2015-06-28T06:38:35Z</time>
      </trkpt>
      <trkpt lat="43.11975" lon="6.0731">
        <ele>57.82</ele>
        <time>2015-06-28T06:38:54Z</time>
      </trkpt>
      <trkpt lat="43.11933" lon="6.07299">
        <ele>58.3</ele>
        <time>2015-06-28T06:39:05Z</time>
      </trkpt>
      <trkpt lat="43.11913" lon="6.07313">
        <ele>58.78</ele>
        <time>2015-06-28T06:39:12Z</time>
      </trkpt>
      <trkpt lat="43.11896" lon="6.07449">
        <ele>58.78</ele>
        <time>2015-06-28T06:39:29Z</time>
      </trkpt>
      <trkpt lat="43.11866" lon="6.0762">
        <ele>57.34</ele>
        <time>2015-06-28T06:39:49Z</time>
      </trkpt>
      <trkpt lat="43.1184" lon="6.07749">
        <ele>55.89</ele>
        <time>2015-06-28T06:40:07Z</time>
      </trkpt>
      <trkpt lat="43.11794" lon="6.07944">
        <ele>54.45</ele>
        <time>2015-06-28T06:40:35Z</time>
      </trkpt>
      <trkpt lat="43.11759" lon="6.08057">
        <ele>55.41</ele>
        <time>2015-06-28T06:40:52Z</time>
      </trkpt>
      <trkpt lat="43.11748" lon="6.08187">
        <ele>55.89</ele>
        <time>2015-06-28T06:41:07Z</time>
      </trkpt>
      <trkpt lat="43.1174" lon="6.08402">
        <ele>54.45</ele>
        <time>2015-06-28T06:41:31Z</time>
      </trkpt>
      <trkpt lat="43.11736" lon="6.08619">
        <ele>52.53</ele>
        <time>2015-06-28T06:41:56Z</time>
      </trkpt>
      <trkpt lat="43.11716" lon="6.0882">
        <ele>49.65</ele>
        <time>2015-06-28T06:42:21Z</time>
      </trkpt>
      <trkpt lat="43.11681" lon="6.08991">
        <ele>47.24</ele>
        <time>2015-06-28T06:42:42Z</time>
      </trkpt>
      <trkpt lat="43.11611" lon="6.09201">
        <ele>49.65</ele>
        <time>2015-06-28T06:43:09Z</time>
      </trkpt>
      <trkpt lat="43.11545" lon="6.09424">
        <ele>49.16</ele>
        <time>2015-06-28T06:43:38Z</time>
      </trkpt>
      <trkpt lat="43.115" lon="6.09604">
        <ele>50.13</ele>
        <time>2015-06-28T06:44:00Z</time>
      </trkpt>
      <trkpt lat="43.11453" lon="6.09777">
        <ele>47.72</ele>
        <time>2015-06-28T06:44:20Z</time>
      </trkpt>
      <trkpt lat="43.11397" lon="6.09928">
        <ele>47.24</ele>
        <time>2015-06-28T06:44:38Z</time>
      </trkpt>
      <trkpt lat="43.11359" lon="6.10107">
        <ele>44.84</ele>
        <time>2015-06-28T06:44:58Z</time>
      </trkpt>
      <trkpt lat="43.11331" lon="6.10298">
        <ele>42.92</ele>
        <time>2015-06-28T06:45:18Z</time>
      </trkpt>
      <trkpt lat="43.11311" lon="6.10512">
        <ele>39.07</ele>
        <time>2015-06-28T06:45:40Z</time>
      </trkpt>
      <trkpt lat="43.11297" lon="6.10642">
        <ele>37.15</ele>
        <time>2015-06-28T06:45:55Z</time>
      </trkpt>
      <trkpt lat="43.11348" lon="6.10799">
        <ele>34.74</ele>
        <time>2015-06-28T06:46:12Z</time>
      </trkpt>
      <trkpt lat="43.11368" lon="6.10861">
        <ele>33.78</ele>
        <time>2015-06-28T06:46:19Z</time>
      </trkpt>
      <trkpt lat="43.11369" lon="6.10924">
        <ele>35.23</ele>
        <time>2015-06-28T06:46:26Z</time>
      </trkpt>
      <trkpt lat="43.11369" lon="6.10953">
        <ele>37.63</ele>
        <time>2015-06-28T06:46:30Z</time>
      </trkpt>
      <trkpt lat="43.11375" lon="6.10977">
        <ele>38.59</ele>
        <time>2015-06-28T06:46:33Z</time>
      </trkpt>
      <trkpt lat="43.11377" lon="6.11011">
        <ele>39.55</ele>
        <time>2015-06-28T06:46:37Z</time>
      </trkpt>
      <trkpt lat="43.11315" lon="6.11139">
        <ele>40.51</ele>
        <time>2015-06-28T06:46:54Z</time>
      </trkpt>
      <trkpt lat="43.11228" lon="6.11319">
        <ele>39.55</ele>
        <time>2015-06-28T06:47:17Z</time>
      </trkpt>
      <trkpt lat="43.11185" lon="6.1139">
        <ele>38.59</ele>
        <time>2015-06-28T06:47:30Z</time>
      </trkpt>
      <trkpt lat="43.11135" lon="6.11504">
        <ele>38.11</ele>
        <time>2015-06-28T06:47:46Z</time>
      </trkpt>
      <trkpt lat="43.11062" lon="6.11683">
        <ele>37.15</ele>
        <time>2015-06-28T06:48:09Z</time>
      </trkpt>
      <trkpt lat="43.11035" lon="6.11832">
        <ele>34.74</ele>
        <time>2015-06-28T06:48:26Z</time>
      </trkpt>
      <trkpt lat="43.11011" lon="6.12039">
        <ele>31.38</ele>
        <time>2015-06-28T06:48:48Z</time>
      </trkpt>
      <trkpt lat="43.10977" lon="6.12175">
        <ele>30.42</ele>
        <time>2015-06-28T06:49:05Z</time>
      </trkpt>
      <trkpt lat="43.10965" lon="6.12205">
        <ele>29.94</ele>
        <time>2015-06-28T06:49:15Z</time>
      </trkpt>
      <trkpt lat="43.10935" lon="6.12252">
        <ele>29.46</ele>
        <time>2015-06-28T06:49:26Z</time>
      </trkpt>
      <trkpt lat="43.10846" lon="6.12374">
        <ele>28.02</ele>
        <time>2015-06-28T06:49:47Z</time>
      </trkpt>
      <trkpt lat="43.10759" lon="6.12489">
        <ele>26.09</ele>
        <time>2015-06-28T06:50:04Z</time>
      </trkpt>
      <trkpt lat="43.10652" lon="6.12618">
        <ele>23.69</ele>
        <time>2015-06-28T06:50:23Z</time>
      </trkpt>
      <trkpt lat="43.10522" lon="6.12723">
        <ele>19.84</ele>
        <time>2015-06-28T06:50:43Z</time>
      </trkpt>
      <trkpt lat="43.10506" lon="6.12737">
        <ele>17.92</ele>
        <time>2015-06-28T06:50:48Z</time>
      </trkpt>
      <trkpt lat="43.10495" lon="6.1274">
        <ele>17.92</ele>
        <time>2015-06-28T06:50:51Z</time>
      </trkpt>
      <trkpt lat="43.10471" lon="6.12764">
        <ele>16.96</ele>
        <time>2015-06-28T06:50:57Z</time>
      </trkpt>
      <trkpt lat="43.10336" lon="6.12872">
        <ele>14.56</ele>
        <time>2015-06-28T06:51:20Z</time>
      </trkpt>
      <trkpt lat="43.10214" lon="6.12975">
        <ele>12.15</ele>
        <time>2015-06-28T06:51:40Z</time>
      </trkpt>
      <trkpt lat="43.10202" lon="6.12989">
        <ele>12.15</ele>
        <time>2015-06-28T06:51:42Z</time>
      </trkpt>
      <trkpt lat="43.10162" lon="6.13019">
        <ele>11.19</ele>
        <time>2015-06-28T06:51:50Z</time>
      </trkpt>
      <trkpt lat="43.10162" lon="6.13026">
        <ele>10.71</ele>
        <time>2015-06-28T06:51:51Z</time>
      </trkpt>
      <trkpt lat="43.10161" lon="6.13051">
        <ele>10.23</ele>
        <time>2015-06-28T06:51:54Z</time>
      </trkpt>
      <trkpt lat="43.10153" lon="6.13076">
        <ele>9.75</ele>
        <time>2015-06-28T06:51:57Z</time>
      </trkpt>
      <trkpt lat="43.10067" lon="6.13181">
        <ele>9.27</ele>
        <time>2015-06-28T06:52:12Z</time>
      </trkpt>
      <trkpt lat="43.09934" lon="6.133">
        <ele>6.87</ele>
        <time>2015-06-28T06:52:32Z</time>
      </trkpt>
      <trkpt lat="43.09788" lon="6.13424">
        <ele>1.58</ele>
        <time>2015-06-28T06:52:55Z</time>
      </trkpt>
      <trkpt lat="43.0965" lon="6.13548">
        <ele>-1.3</ele>
        <time>2015-06-28T06:53:18Z</time>
      </trkpt>
      <trkpt lat="43.09527" lon="6.13653">
        <ele>-2.27</ele>
        <time>2015-06-28T06:53:39Z</time>
      </trkpt>
      <trkpt lat="43.09449" lon="6.13748">
        <ele>-2.27</ele>
        <time>2015-06-28T06:53:55Z</time>
      </trkpt>
      <trkpt lat="43.09356" lon="6.13914">
        <ele>-2.75</ele>
        <time>2015-06-28T06:54:18Z</time>
      </trkpt>
      <trkpt lat="43.09288" lon="6.14039">
        <ele>-2.27</ele>
        <time>2015-06-28T06:54:36Z</time>
      </trkpt>
      <trkpt lat="43.09191" lon="6.14187">
        <ele>-2.27</ele>
        <time>2015-06-28T06:54:59Z</time>
      </trkpt>
      <trkpt lat="43.09087" lon="6.14302">
        <ele>-3.23</ele>
        <time>2015-06-28T06:55:21Z</time>
      </trkpt>
      <trkpt lat="43.0897" lon="6.14397">
        <ele>-7.07</ele>
        <time>2015-06-28T06:55:44Z</time>
      </trkpt>
      <trkpt lat="43.08952" lon="6.14421">
        <ele>-10.44</ele>
        <time>2015-06-28T06:55:57Z</time>
      </trkpt>
      <trkpt lat="43.08909" lon="6.14487">
        <ele>-13.8</ele>
        <time>2015-06-28T06:56:15Z</time>
      </trkpt>
      <trkpt lat="43.0877" lon="6.14577">
        <ele>-5.15</ele>
        <time>2015-06-28T06:56:33Z</time>
      </trkpt>
      <trkpt lat="43.08659" lon="6.14674">
        <ele>-2.27</ele>
        <time>2015-06-28T06:56:53Z</time>
      </trkpt>
      <trkpt lat="43.08548" lon="6.14782">
        <ele>-1.79</ele>
        <time>2015-06-28T06:57:14Z</time>
      </trkpt>
      <trkpt lat="43.08434" lon="6.14883">
        <ele>0.14</ele>
        <time>2015-06-28T06:57:34Z</time>
      </trkpt>
      <trkpt lat="43.08333" lon="6.14955">
        <ele>3.5</ele>
        <time>2015-06-28T06:57:53Z</time>
      </trkpt>
      <trkpt lat="43.0831" lon="6.14962">
        <ele>3.5</ele>
        <time>2015-06-28T06:57:59Z</time>
      </trkpt>
      <trkpt lat="43.08305" lon="6.1496">
        <ele>2.54</ele>
        <time>2015-06-28T06:58:14Z</time>
      </trkpt>
      <trkpt lat="43.08296" lon="6.14971">
        <ele>3.02</ele>
        <time>2015-06-28T06:58:21Z</time>
      </trkpt>
      <trkpt lat="43.08285" lon="6.1497">
        <ele>3.5</ele>
        <time>2015-06-28T06:58:24Z</time>
      </trkpt>
      <trkpt lat="43.08242" lon="6.15012">
        <ele>3.98</ele>
        <time>2015-06-28T06:58:33Z</time>
      </trkpt>
      <trkpt lat="43.08239" lon="6.15028">
        <ele>4.46</ele>
        <time>2015-06-28T06:58:35Z</time>
      </trkpt>
      <trkpt lat="43.08239" lon="6.1505">
        <ele>3.98</ele>
        <time>2015-06-28T06:58:38Z</time>
      </trkpt>
      <trkpt lat="43.0827" lon="6.15101">
        <ele>3.5</ele>
        <time>2015-06-28T06:58:48Z</time>
      </trkpt>
      <trkpt lat="43.08291" lon="6.14959">
        <ele>-0.34</ele>
        <time>2015-06-28T06:58:56Z</time>
      </trkpt>
      <trkpt lat="43.08239" lon="6.14958">
        <ele>-10.44</ele>
        <time>2015-06-28T06:59:03Z</time>
      </trkpt>
      <trkpt lat="43.08227" lon="6.14977">
        <ele>-11.88</ele>
        <time>2015-06-28T06:59:05Z</time>
      </trkpt>
      <trkpt lat="43.08218" lon="6.1499">
        <ele>-8.51</ele>
        <time>2015-06-28T06:59:07Z</time>
      </trkpt>
      <trkpt lat="43.08162" lon="6.15007">
        <ele>-3.71</ele>
        <time>2015-06-28T06:59:16Z</time>
      </trkpt>
      <trkpt lat="43.08054" lon="6.14981">
        <ele>-0.82</ele>
        <time>2015-06-28T06:59:32Z</time>
      </trkpt>
      <trkpt lat="43.08048" lon="6.14977">
        <ele>-0.82</ele>
        <time>2015-06-28T06:59:33Z</time>
      </trkpt>
      <trkpt lat="43.08015" lon="6.14945">
        <ele>0.62</ele>
        <time>2015-06-28T06:59:40Z</time>
      </trkpt>
      <trkpt lat="43.07982" lon="6.14972">
        <ele>2.54</ele>
        <time>2015-06-28T06:59:47Z</time>
      </trkpt>
      <trkpt lat="43.07965" lon="6.14981">
        <ele>3.02</ele>
        <time>2015-06-28T06:59:50Z</time>
      </trkpt>
      <trkpt lat="43.07889" lon="6.14968">
        <ele>3.5</ele>
        <time>2015-06-28T07:00:04Z</time>
      </trkpt>
      <trkpt lat="43.07759" lon="6.14942">
        <ele>2.54</ele>
        <time>2015-06-28T07:00:25Z</time>
      </trkpt>
      <trkpt lat="43.076" lon="6.14908">
        <ele>1.1</ele>
        <time>2015-06-28T07:00:49Z</time>
      </trkpt>
      <trkpt lat="43.07421" lon="6.14875">
        <ele>1.58</ele>
        <time>2015-06-28T07:01:15Z</time>
      </trkpt>
      <trkpt lat="43.07291" lon="6.14816">
        <ele>2.06</ele>
        <time>2015-06-28T07:01:34Z</time>
      </trkpt>
      <trkpt lat="43.07164" lon="6.1477">
        <ele>3.02</ele>
        <time>2015-06-28T07:01:53Z</time>
      </trkpt>
      <trkpt lat="43.07018" lon="6.14746">
        <ele>2.54</ele>
        <time>2015-06-28T07:02:15Z</time>
      </trkpt>
      <trkpt lat="43.06874" lon="6.14725">
        <ele>3.02</ele>
        <time>2015-06-28T07:02:37Z</time>
      </trkpt>
      <trkpt lat="43.06735" lon="6.14724">
        <ele>4.46</ele>
        <time>2015-06-28T07:02:58Z</time>
      </trkpt>
      <trkpt lat="43.066" lon="6.1472">
        <ele>5.42</ele>
        <time>2015-06-28T07:03:19Z</time>
      </trkpt>
      <trkpt lat="43.06502" lon="6.14736">
        <ele>4.94</ele>
        <time>2015-06-28T07:03:35Z</time>
      </trkpt>
      <trkpt lat="43.06392" lon="6.14737">
        <ele>0.14</ele>
        <time>2015-06-28T07:03:53Z</time>
      </trkpt>
      <trkpt lat="43.06286" lon="6.14726">
        <ele>-4.67</ele>
        <time>2015-06-28T07:04:10Z</time>
      </trkpt>
      <trkpt lat="43.06167" lon="6.14719">
        <ele>-7.07</ele>
        <time>2015-06-28T07:04:28Z</time>
      </trkpt>
      <trkpt lat="43.06037" lon="6.1471">
        <ele>-7.07</ele>
        <time>2015-06-28T07:04:48Z</time>
      </trkpt>
      <trkpt lat="43.05908" lon="6.14701">
        <ele>-6.59</ele>
        <time>2015-06-28T07:05:07Z</time>
      </trkpt>
      <trkpt lat="43.05771" lon="6.14691">
        <ele>-6.59</ele>
        <time>2015-06-28T07:05:28Z</time>
      </trkpt>
      <trkpt lat="43.05648" lon="6.147">
        <ele>-4.67</ele>
        <time>2015-06-28T07:05:47Z</time>
      </trkpt>
      <trkpt lat="43.05564" lon="6.14716">
        <ele>-5.63</ele>
        <time>2015-06-28T07:06:00Z</time>
      </trkpt>
      <trkpt lat="43.05447" lon="6.14716">
        <ele>-4.67</ele>
        <time>2015-06-28T07:06:17Z</time>
      </trkpt>
      <trkpt lat="43.05287" lon="6.147">
        <ele>-6.59</ele>
        <time>2015-06-28T07:06:41Z</time>
      </trkpt>
      <trkpt lat="43.05162" lon="6.14687">
        <ele>-9.48</ele>
        <time>2015-06-28T07:07:00Z</time>
      </trkpt>
      <trkpt lat="43.05001" lon="6.14672">
        <ele>-15.24</ele>
        <time>2015-06-28T07:07:24Z</time>
      </trkpt>
      <trkpt lat="43.04842" lon="6.14652">
        <ele>-11.4</ele>
        <time>2015-06-28T07:07:48Z</time>
      </trkpt>
      <trkpt lat="43.04775" lon="6.14645">
        <ele>-10.44</ele>
        <time>2015-06-28T07:07:58Z</time>
      </trkpt>
      <trkpt lat="43.04763" lon="6.14641">
        <ele>-9.96</ele>
        <time>2015-06-28T07:08:00Z</time>
      </trkpt>
      <trkpt lat="43.04669" lon="6.14628">
        <ele>-6.59</ele>
        <time>2015-06-28T07:08:14Z</time>
      </trkpt>
      <trkpt lat="43.04518" lon="6.14609">
        <ele>-2.75</ele>
        <time>2015-06-28T07:08:36Z</time>
      </trkpt>
      <trkpt lat="43.04362" lon="6.14586">
        <ele>-1.3</ele>
        <time>2015-06-28T07:08:59Z</time>
      </trkpt>
      <trkpt lat="43.04189" lon="6.14557">
        <ele>-1.79</ele>
        <time>2015-06-28T07:09:25Z</time>
      </trkpt>
      <trkpt lat="43.0411" lon="6.14536">
        <ele>-2.27</ele>
        <time>2015-06-28T07:09:38Z</time>
      </trkpt>
      <trkpt lat="43.04093" lon="6.14518">
        <ele>-2.27</ele>
        <time>2015-06-28T07:09:42Z</time>
      </trkpt>
      <trkpt lat="43.04087" lon="6.14505">
        <ele>-2.75</ele>
        <time>2015-06-28T07:09:44Z</time>
      </trkpt>
      <trkpt lat="43.04081" lon="6.14486">
        <ele>-1.79</ele>
        <time>2015-06-28T07:09:47Z</time>
      </trkpt>
      <trkpt lat="43.04079" lon="6.14416">
        <ele>0.62</ele>
        <time>2015-06-28T07:09:55Z</time>
      </trkpt>
      <trkpt lat="43.04087" lon="6.14377">
        <ele>2.54</ele>
        <time>2015-06-28T07:10:00Z</time>
      </trkpt>
      <trkpt lat="43.04145" lon="6.14247">
        <ele>4.94</ele>
        <time>2015-06-28T07:10:18Z</time>
      </trkpt>
      <trkpt lat="43.04154" lon="6.14225">
        <ele>5.42</ele>
        <time>2015-06-28T07:10:21Z</time>
      </trkpt>
      <trkpt lat="43.0417" lon="6.14201">
        <ele>5.42</ele>
        <time>2015-06-28T07:10:25Z</time>
      </trkpt>
      <trkpt lat="43.04212" lon="6.1411">
        <ele>4.94</ele>
        <time>2015-06-28T07:10:37Z</time>
      </trkpt>
      <trkpt lat="43.04271" lon="6.13995">
        <ele>6.39</ele>
        <time>2015-06-28T07:10:54Z</time>
      </trkpt>
      <trkpt lat="43.04371" lon="6.13895">
        <ele>4.46</ele>
        <time>2015-06-28T07:11:16Z</time>
      </trkpt>
      <trkpt lat="43.04427" lon="6.13781">
        <ele>3.02</ele>
        <time>2015-06-28T07:11:33Z</time>
      </trkpt>
      <trkpt lat="43.04451" lon="6.13659">
        <ele>1.58</ele>
        <time>2015-06-28T07:11:46Z</time>
      </trkpt>
      <trkpt lat="43.04473" lon="6.13567">
        <ele>0.62</ele>
        <time>2015-06-28T07:11:57Z</time>
      </trkpt>
      <trkpt lat="43.04472" lon="6.13534">
        <ele>0.14</ele>
        <time>2015-06-28T07:12:01Z</time>
      </trkpt>
      <trkpt lat="43.0447" lon="6.1352">
        <ele>-0.34</ele>
        <time>2015-06-28T07:12:03Z</time>
      </trkpt>
      <trkpt lat="43.04468" lon="6.13489">
        <ele>-1.79</ele>
        <time>2015-06-28T07:12:14Z</time>
      </trkpt>
      <trkpt lat="43.04465" lon="6.13495">
        <ele>0.14</ele>
        <time>2015-06-28T07:12:37Z</time>
      </trkpt>
      <trkpt lat="43.04464" lon="6.13497">
        <ele>2.06</ele>
        <time>2015-06-28T07:13:06Z</time>
      </trkpt>
      <trkpt lat="43.04463" lon="6.13498">
        <ele>3.02</ele>
        <time>2015-06-28T07:13:37Z</time>
      </trkpt>
      <trkpt lat="43.04464" lon="6.13497">
        <ele>2.06</ele>
        <time>2015-06-28T07:14:02Z</time>
      </trkpt>
      <trkpt lat="43.04464" lon="6.13496">
        <ele>1.58</ele>
        <time>2015-06-28T07:14:31Z</time>
      </trkpt>
      <trkpt lat="43.04467" lon="6.13469">
        <ele>3.5</ele>
        <time>2015-06-28T07:14:46Z</time>
      </trkpt>
      <trkpt lat="43.04476" lon="6.13453">
        <ele>4.46</ele>
        <time>2015-06-28T07:14:50Z</time>
      </trkpt>
      <trkpt lat="43.04578" lon="6.13406">
        <ele>6.87</ele>
        <time>2015-06-28T07:15:09Z</time>
      </trkpt>
      <trkpt lat="43.04704" lon="6.1336">
        <ele>6.87</ele>
        <time>2015-06-28T07:15:32Z</time>
      </trkpt>
      <trkpt lat="43.04857" lon="6.13313">
        <ele>4.94</ele>
        <time>2015-06-28T07:15:59Z</time>
      </trkpt>
      <trkpt lat="43.0496" lon="6.13299">
        <ele>5.42</ele>
        <time>2015-06-28T07:16:16Z</time>
      </trkpt>
      <trkpt lat="43.05077" lon="6.13312">
        <ele>3.98</ele>
        <time>2015-06-28T07:16:36Z</time>
      </trkpt>
      <trkpt lat="43.05187" lon="6.13341">
        <ele>3.02</ele>
        <time>2015-06-28T07:16:55Z</time>
      </trkpt>
      <trkpt lat="43.05315" lon="6.13341">
        <ele>3.5</ele>
        <time>2015-06-28T07:17:17Z</time>
      </trkpt>
      <trkpt lat="43.05443" lon="6.13366">
        <ele>3.02</ele>
        <time>2015-06-28T07:17:39Z</time>
      </trkpt>
      <trkpt lat="43.0558" lon="6.13367">
        <ele>1.58</ele>
        <time>2015-06-28T07:18:02Z</time>
      </trkpt>
      <trkpt lat="43.05726" lon="6.13347">
        <ele>1.1</ele>
        <time>2015-06-28T07:18:27Z</time>
      </trkpt>
      <trkpt lat="43.05854" lon="6.13308">
        <ele>1.1</ele>
        <time>2015-06-28T07:18:50Z</time>
      </trkpt>
      <trkpt lat="43.05986" lon="6.13261">
        <ele>1.1</ele>
        <time>2015-06-28T07:19:13Z</time>
      </trkpt>
      <trkpt lat="43.06095" lon="6.13231">
        <ele>1.58</ele>
        <time>2015-06-28T07:19:32Z</time>
      </trkpt>
      <trkpt lat="43.0622" lon="6.13195">
        <ele>2.54</ele>
        <time>2015-06-28T07:19:54Z</time>
      </trkpt>
      <trkpt lat="43.06342" lon="6.13151">
        <ele>3.5</ele>
        <time>2015-06-28T07:20:15Z</time>
      </trkpt>
      <trkpt lat="43.06473" lon="6.13111">
        <ele>5.42</ele>
        <time>2015-06-28T07:20:38Z</time>
      </trkpt>
      <trkpt lat="43.06604" lon="6.13079">
        <ele>5.42</ele>
        <time>2015-06-28T07:21:02Z</time>
      </trkpt>
      <trkpt lat="43.0668" lon="6.13064">
        <ele>6.39</ele>
        <time>2015-06-28T07:21:18Z</time>
      </trkpt>
      <trkpt lat="43.06805" lon="6.13035">
        <ele>6.87</ele>
        <time>2015-06-28T07:21:39Z</time>
      </trkpt>
      <trkpt lat="43.06939" lon="6.12991">
        <ele>8.31</ele>
        <time>2015-06-28T07:22:03Z</time>
      </trkpt>
      <trkpt lat="43.07061" lon="6.12928">
        <ele>9.27</ele>
        <time>2015-06-28T07:22:25Z</time>
      </trkpt>
      <trkpt lat="43.07189" lon="6.12876">
        <ele>8.79</ele>
        <time>2015-06-28T07:22:48Z</time>
      </trkpt>
      <trkpt lat="43.07317" lon="6.12835">
        <ele>9.27</ele>
        <time>2015-06-28T07:23:10Z</time>
      </trkpt>
      <trkpt lat="43.07454" lon="6.12789">
        <ele>8.31</ele>
        <time>2015-06-28T07:23:33Z</time>
      </trkpt>
      <trkpt lat="43.07585" lon="6.12738">
        <ele>7.83</ele>
        <time>2015-06-28T07:23:55Z</time>
      </trkpt>
      <trkpt lat="43.07711" lon="6.12683">
        <ele>6.39</ele>
        <time>2015-06-28T07:24:16Z</time>
      </trkpt>
      <trkpt lat="43.07833" lon="6.12659">
        <ele>6.87</ele>
        <time>2015-06-28T07:24:37Z</time>
      </trkpt>
      <trkpt lat="43.0795" lon="6.12657">
        <ele>5.42</ele>
        <time>2015-06-28T07:24:58Z</time>
      </trkpt>
      <trkpt lat="43.07995" lon="6.12697">
        <ele>5.42</ele>
        <time>2015-06-28T07:25:09Z</time>
      </trkpt>
      <trkpt lat="43.0803" lon="6.12699">
        <ele>6.39</ele>
        <time>2015-06-28T07:25:16Z</time>
      </trkpt>
      <trkpt lat="43.08035" lon="6.12644">
        <ele>8.31</ele>
        <time>2015-06-28T07:25:23Z</time>
      </trkpt>
      <trkpt lat="43.08031" lon="6.12635">
        <ele>8.79</ele>
        <time>2015-06-28T07:25:24Z</time>
      </trkpt>
      <trkpt lat="43.07999" lon="6.12493">
        <ele>8.31</ele>
        <time>2015-06-28T07:25:42Z</time>
      </trkpt>
      <trkpt lat="43.07999" lon="6.12381">
        <ele>8.31</ele>
        <time>2015-06-28T07:25:58Z</time>
      </trkpt>
      <trkpt lat="43.08005" lon="6.12345">
        <ele>9.75</ele>
        <time>2015-06-28T07:26:04Z</time>
      </trkpt>
      <trkpt lat="43.08047" lon="6.1222">
        <ele>14.56</ele>
        <time>2015-06-28T07:26:25Z</time>
      </trkpt>
      <trkpt lat="43.08082" lon="6.12063">
        <ele>16</ele>
        <time>2015-06-28T07:26:49Z</time>
      </trkpt>
      <trkpt lat="43.08101" lon="6.11948">
        <ele>16.48</ele>
        <time>2015-06-28T07:27:05Z</time>
      </trkpt>
      <trkpt lat="43.08149" lon="6.11877">
        <ele>19.36</ele>
        <time>2015-06-28T07:27:18Z</time>
      </trkpt>
      <trkpt lat="43.08194" lon="6.11854">
        <ele>20.32</ele>
        <time>2015-06-28T07:27:26Z</time>
      </trkpt>
      <trkpt lat="43.08248" lon="6.11789">
        <ele>20.81</ele>
        <time>2015-06-28T07:27:42Z</time>
      </trkpt>
      <trkpt lat="43.08297" lon="6.11685">
        <ele>20.32</ele>
        <time>2015-06-28T07:28:02Z</time>
      </trkpt>
      <trkpt lat="43.08338" lon="6.11601">
        <ele>22.25</ele>
        <time>2015-06-28T07:28:21Z</time>
      </trkpt>
      <trkpt lat="43.0837" lon="6.11502">
        <ele>28.98</ele>
        <time>2015-06-28T07:28:45Z</time>
      </trkpt>
      <trkpt lat="43.08392" lon="6.11393">
        <ele>31.38</ele>
        <time>2015-06-28T07:29:07Z</time>
      </trkpt>
      <trkpt lat="43.08406" lon="6.11281">
        <ele>38.59</ele>
        <time>2015-06-28T07:29:32Z</time>
      </trkpt>
      <trkpt lat="43.08437" lon="6.11195">
        <ele>41.47</ele>
        <time>2015-06-28T07:29:54Z</time>
      </trkpt>
      <trkpt lat="43.08447" lon="6.11128">
        <ele>40.03</ele>
        <time>2015-06-28T07:30:11Z</time>
      </trkpt>
      <trkpt lat="43.08451" lon="6.11053">
        <ele>41.47</ele>
        <time>2015-06-28T07:30:30Z</time>
      </trkpt>
      <trkpt lat="43.08471" lon="6.1097">
        <ele>44.36</ele>
        <time>2015-06-28T07:30:50Z</time>
      </trkpt>
      <trkpt lat="43.08473" lon="6.10891">
        <ele>47.24</ele>
        <time>2015-06-28T07:31:08Z</time>
      </trkpt>
      <trkpt lat="43.08477" lon="6.10867">
        <ele>48.2</ele>
        <time>2015-06-28T07:31:14Z</time>
      </trkpt>
      <trkpt lat="43.08492" lon="6.10851">
        <ele>49.16</ele>
        <time>2015-06-28T07:31:22Z</time>
      </trkpt>
      <trkpt lat="43.08492" lon="6.10723">
        <ele>53.97</ele>
        <time>2015-06-28T07:31:39Z</time>
      </trkpt>
      <trkpt lat="43.0847" lon="6.10544">
        <ele>54.93</ele>
        <time>2015-06-28T07:31:55Z</time>
      </trkpt>
      <trkpt lat="43.08488" lon="6.10401">
        <ele>53.97</ele>
        <time>2015-06-28T07:32:08Z</time>
      </trkpt>
      <trkpt lat="43.085" lon="6.10232">
        <ele>49.65</ele>
        <time>2015-06-28T07:32:26Z</time>
      </trkpt>
      <trkpt lat="43.08521" lon="6.1007">
        <ele>45.8</ele>
        <time>2015-06-28T07:32:43Z</time>
      </trkpt>
      <trkpt lat="43.0853" lon="6.09874">
        <ele>41.47</ele>
        <time>2015-06-28T07:33:02Z</time>
      </trkpt>
      <trkpt lat="43.08546" lon="6.09737">
        <ele>36.19</ele>
        <time>2015-06-28T07:33:17Z</time>
      </trkpt>
      <trkpt lat="43.08551" lon="6.09722">
        <ele>33.3</ele>
        <time>2015-06-28T07:33:28Z</time>
      </trkpt>
      <trkpt lat="43.08549" lon="6.0965">
        <ele>33.3</ele>
        <time>2015-06-28T07:33:39Z</time>
      </trkpt>
      <trkpt lat="43.08542" lon="6.09524">
        <ele>32.34</ele>
        <time>2015-06-28T07:33:50Z</time>
      </trkpt>
      <trkpt lat="43.08587" lon="6.09397">
        <ele>28.98</ele>
        <time>2015-06-28T07:34:03Z</time>
      </trkpt>
      <trkpt lat="43.08631" lon="6.09287">
        <ele>25.13</ele>
        <time>2015-06-28T07:34:18Z</time>
      </trkpt>
      <trkpt lat="43.08677" lon="6.09163">
        <ele>20.32</ele>
        <time>2015-06-28T07:34:34Z</time>
      </trkpt>
      <trkpt lat="43.08713" lon="6.09">
        <ele>18.88</ele>
        <time>2015-06-28T07:34:54Z</time>
      </trkpt>
      <trkpt lat="43.08747" lon="6.0882">
        <ele>15.52</ele>
        <time>2015-06-28T07:35:16Z</time>
      </trkpt>
      <trkpt lat="43.08801" lon="6.08686">
        <ele>14.08</ele>
        <time>2015-06-28T07:35:34Z</time>
      </trkpt>
      <trkpt lat="43.08825" lon="6.0866">
        <ele>14.56</ele>
        <time>2015-06-28T07:35:41Z</time>
      </trkpt>
      <trkpt lat="43.08843" lon="6.08652">
        <ele>14.08</ele>
        <time>2015-06-28T07:35:45Z</time>
      </trkpt>
      <trkpt lat="43.0893" lon="6.0865">
        <ele>14.56</ele>
        <time>2015-06-28T07:36:05Z</time>
      </trkpt>
      <trkpt lat="43.08986" lon="6.08623">
        <ele>16</ele>
        <time>2015-06-28T07:36:21Z</time>
      </trkpt>
      <trkpt lat="43.08995" lon="6.08622">
        <ele>17.44</ele>
        <time>2015-06-28T07:36:31Z</time>
      </trkpt>
      <trkpt lat="43.09007" lon="6.08613">
        <ele>18.88</ele>
        <time>2015-06-28T07:36:48Z</time>
      </trkpt>
      <trkpt lat="43.09013" lon="6.08599">
        <ele>19.84</ele>
        <time>2015-06-28T07:36:51Z</time>
      </trkpt>
      <trkpt lat="43.09025" lon="6.08481">
        <ele>21.77</ele>
        <time>2015-06-28T07:37:08Z</time>
      </trkpt>
      <trkpt lat="43.09028" lon="6.08424">
        <ele>22.73</ele>
        <time>2015-06-28T07:37:16Z</time>
      </trkpt>
      <trkpt lat="43.09072" lon="6.08262">
        <ele>23.69</ele>
        <time>2015-06-28T07:37:39Z</time>
      </trkpt>
      <trkpt lat="43.09118" lon="6.08108">
        <ele>26.09</ele>
        <time>2015-06-28T07:38:00Z</time>
      </trkpt>
      <trkpt lat="43.09125" lon="6.0809">
        <ele>26.09</ele>
        <time>2015-06-28T07:38:03Z</time>
      </trkpt>
      <trkpt lat="43.09132" lon="6.08063">
        <ele>27.53</ele>
        <time>2015-06-28T07:38:09Z</time>
      </trkpt>
      <trkpt lat="43.09147" lon="6.08055">
        <ele>28.98</ele>
        <time>2015-06-28T07:38:14Z</time>
      </trkpt>
      <trkpt lat="43.09151" lon="6.07995">
        <ele>29.94</ele>
        <time>2015-06-28T07:38:23Z</time>
      </trkpt>
      <trkpt lat="43.09153" lon="6.07988">
        <ele>30.42</ele>
        <time>2015-06-28T07:38:24Z</time>
      </trkpt>
      <trkpt lat="43.09205" lon="6.0782">
        <ele>34.26</ele>
        <time>2015-06-28T07:38:46Z</time>
      </trkpt>
      <trkpt lat="43.09251" lon="6.07697">
        <ele>35.23</ele>
        <time>2015-06-28T07:39:04Z</time>
      </trkpt>
      <trkpt lat="43.09266" lon="6.07675">
        <ele>35.23</ele>
        <time>2015-06-28T07:39:09Z</time>
      </trkpt>
      <trkpt lat="43.09279" lon="6.07649">
        <ele>36.67</ele>
        <time>2015-06-28T07:39:14Z</time>
      </trkpt>
      <trkpt lat="43.09282" lon="6.07638">
        <ele>37.63</ele>
        <time>2015-06-28T07:39:17Z</time>
      </trkpt>
      <trkpt lat="43.09266" lon="6.07644">
        <ele>42.92</ele>
        <time>2015-06-28T07:39:21Z</time>
      </trkpt>
      <trkpt lat="43.09247" lon="6.07658">
        <ele>45.8</ele>
        <time>2015-06-28T07:39:25Z</time>
      </trkpt>
      <trkpt lat="43.09236" lon="6.0764">
        <ele>46.76</ele>
        <time>2015-06-28T07:39:31Z</time>
      </trkpt>
      <trkpt lat="43.09241" lon="6.07631">
        <ele>47.72</ele>
        <time>2015-06-28T07:39:33Z</time>
      </trkpt>
      <trkpt lat="43.09251" lon="6.07527">
        <ele>48.2</ele>
        <time>2015-06-28T07:39:49Z</time>
      </trkpt>
      <trkpt lat="43.09268" lon="6.07397">
        <ele>46.28</ele>
        <time>2015-06-28T07:40:09Z</time>
      </trkpt>
      <trkpt lat="43.09281" lon="6.07314">
        <ele>43.4</ele>
        <time>2015-06-28T07:40:23Z</time>
      </trkpt>
      <trkpt lat="43.0932" lon="6.07214">
        <ele>43.88</ele>
        <time>2015-06-28T07:40:40Z</time>
      </trkpt>
      <trkpt lat="43.09359" lon="6.07154">
        <ele>41.47</ele>
        <time>2015-06-28T07:40:57Z</time>
      </trkpt>
      <trkpt lat="43.09396" lon="6.07109">
        <ele>44.36</ele>
        <time>2015-06-28T07:41:12Z</time>
      </trkpt>
      <trkpt lat="43.09422" lon="6.07073">
        <ele>48.2</ele>
        <time>2015-06-28T07:41:25Z</time>
      </trkpt>
      <trkpt lat="43.09498" lon="6.07006">
        <ele>43.4</ele>
        <time>2015-06-28T07:41:43Z</time>
      </trkpt>
      <trkpt lat="43.09554" lon="6.06946">
        <ele>45.32</ele>
        <time>2015-06-28T07:42:01Z</time>
      </trkpt>
      <trkpt lat="43.09593" lon="6.06904">
        <ele>46.28</ele>
        <time>2015-06-28T07:42:16Z</time>
      </trkpt>
      <trkpt lat="43.09653" lon="6.06852">
        <ele>45.32</ele>
        <time>2015-06-28T07:42:33Z</time>
      </trkpt>
      <trkpt lat="43.09706" lon="6.06795">
        <ele>43.88</ele>
        <time>2015-06-28T07:42:51Z</time>
      </trkpt>
      <trkpt lat="43.09766" lon="6.06709">
        <ele>43.4</ele>
        <time>2015-06-28T07:43:14Z</time>
      </trkpt>
      <trkpt lat="43.09806" lon="6.06627">
        <ele>42.44</ele>
        <time>2015-06-28T07:43:33Z</time>
      </trkpt>
      <trkpt lat="43.09859" lon="6.06528">
        <ele>42.92</ele>
        <time>2015-06-28T07:43:55Z</time>
      </trkpt>
      <trkpt lat="43.09921" lon="6.06416">
        <ele>45.32</ele>
        <time>2015-06-28T07:44:18Z</time>
      </trkpt>
      <trkpt lat="43.09959" lon="6.06294">
        <ele>48.2</ele>
        <time>2015-06-28T07:44:41Z</time>
      </trkpt>
      <trkpt lat="43.10008" lon="6.06171">
        <ele>48.68</ele>
        <time>2015-06-28T07:45:05Z</time>
      </trkpt>
      <trkpt lat="43.10055" lon="6.06059">
        <ele>52.53</ele>
        <time>2015-06-28T07:45:27Z</time>
      </trkpt>
      <trkpt lat="43.10069" lon="6.0603">
        <ele>54.45</ele>
        <time>2015-06-28T07:45:33Z</time>
      </trkpt>
      <trkpt lat="43.10096" lon="6.0594">
        <ele>55.41</ele>
        <time>2015-06-28T07:45:50Z</time>
      </trkpt>
      <trkpt lat="43.10151" lon="6.05802">
        <ele>54.93</ele>
        <time>2015-06-28T07:46:10Z</time>
      </trkpt>
      <trkpt lat="43.10188" lon="6.05731">
        <ele>53.97</ele>
        <time>2015-06-28T07:46:20Z</time>
      </trkpt>
      <trkpt lat="43.10236" lon="6.05641">
        <ele>53.01</ele>
        <time>2015-06-28T07:46:33Z</time>
      </trkpt>
      <trkpt lat="43.10297" lon="6.05578">
        <ele>52.05</ele>
        <time>2015-06-28T07:46:48Z</time>
      </trkpt>
      <trkpt lat="43.10299" lon="6.05584">
        <ele>51.57</ele>
        <time>2015-06-28T07:46:58Z</time>
      </trkpt>
      <trkpt lat="43.10302" lon="6.0559">
        <ele>48.2</ele>
        <time>2015-06-28T07:47:23Z</time>
      </trkpt>
      <trkpt lat="43.10301" lon="6.05589">
        <ele>47.24</ele>
        <time>2015-06-28T07:47:52Z</time>
      </trkpt>
      <trkpt lat="43.103" lon="6.05589">
        <ele>47.72</ele>
        <time>2015-06-28T07:48:17Z</time>
      </trkpt>
      <trkpt lat="43.103" lon="6.05588">
        <ele>47.72</ele>
        <time>2015-06-28T07:48:46Z</time>
      </trkpt>
      <trkpt lat="43.10299" lon="6.05589">
        <ele>47.24</ele>
        <time>2015-06-28T07:49:08Z</time>
      </trkpt>
      <trkpt lat="43.103" lon="6.05589">
        <ele>46.28</ele>
        <time>2015-06-28T07:49:28Z</time>
      </trkpt>
      <trkpt lat="43.10325" lon="6.0554">
        <ele>47.24</ele>
        <time>2015-06-28T07:49:41Z</time>
      </trkpt>
      <trkpt lat="43.1041" lon="6.05414">
        <ele>48.2</ele>
        <time>2015-06-28T07:50:01Z</time>
      </trkpt>
      <trkpt lat="43.10533" lon="6.0526">
        <ele>47.24</ele>
        <time>2015-06-28T07:50:26Z</time>
      </trkpt>
      <trkpt lat="43.10634" lon="6.05153">
        <ele>46.76</ele>
        <time>2015-06-28T07:50:46Z</time>
      </trkpt>
      <trkpt lat="43.10704" lon="6.05045">
        <ele>45.8</ele>
        <time>2015-06-28T07:51:02Z</time>
      </trkpt>
      <trkpt lat="43.10797" lon="6.04848">
        <ele>45.32</ele>
        <time>2015-06-28T07:51:27Z</time>
      </trkpt>
      <trkpt lat="43.10837" lon="6.0475">
        <ele>45.8</ele>
        <time>2015-06-28T07:51:39Z</time>
      </trkpt>
      <trkpt lat="43.10844" lon="6.04705">
        <ele>44.84</ele>
        <time>2015-06-28T07:51:44Z</time>
      </trkpt>
      <trkpt lat="43.10855" lon="6.04682">
        <ele>44.84</ele>
        <time>2015-06-28T07:51:48Z</time>
      </trkpt>
      <trkpt lat="43.10887" lon="6.04605">
        <ele>44.84</ele>
        <time>2015-06-28T07:51:58Z</time>
      </trkpt>
      <trkpt lat="43.10899" lon="6.04463">
        <ele>43.88</ele>
        <time>2015-06-28T07:52:12Z</time>
      </trkpt>
      <trkpt lat="43.10916" lon="6.04334">
        <ele>42.92</ele>
        <time>2015-06-28T07:52:26Z</time>
      </trkpt>
      <trkpt lat="43.10882" lon="6.04218">
        <ele>41.95</ele>
        <time>2015-06-28T07:52:39Z</time>
      </trkpt>
      <trkpt lat="43.10876" lon="6.04082">
        <ele>38.59</ele>
        <time>2015-06-28T07:52:54Z</time>
      </trkpt>
      <trkpt lat="43.10894" lon="6.03948">
        <ele>33.78</ele>
        <time>2015-06-28T07:53:08Z</time>
      </trkpt>
      <trkpt lat="43.10878" lon="6.03895">
        <ele>32.34</ele>
        <time>2015-06-28T07:53:15Z</time>
      </trkpt>
      <trkpt lat="43.10876" lon="6.0387">
        <ele>30.9</ele>
        <time>2015-06-28T07:53:20Z</time>
      </trkpt>
      <trkpt lat="43.1088" lon="6.03846">
        <ele>29.94</ele>
        <time>2015-06-28T07:53:24Z</time>
      </trkpt>
      <trkpt lat="43.10897" lon="6.03696">
        <ele>28.98</ele>
        <time>2015-06-28T07:53:39Z</time>
      </trkpt>
      <trkpt lat="43.1087" lon="6.03553">
        <ele>25.13</ele>
        <time>2015-06-28T07:53:56Z</time>
      </trkpt>
      <trkpt lat="43.10832" lon="6.0344">
        <ele>22.25</ele>
        <time>2015-06-28T07:54:13Z</time>
      </trkpt>
      <trkpt lat="43.10799" lon="6.03318">
        <ele>19.36</ele>
        <time>2015-06-28T07:54:30Z</time>
      </trkpt>
      <trkpt lat="43.10768" lon="6.03178">
        <ele>14.56</ele>
        <time>2015-06-28T07:54:47Z</time>
      </trkpt>
      <trkpt lat="43.10753" lon="6.03148">
        <ele>12.63</ele>
        <time>2015-06-28T07:54:52Z</time>
      </trkpt>
      <trkpt lat="43.10746" lon="6.03137">
        <ele>11.67</ele>
        <time>2015-06-28T07:54:54Z</time>
      </trkpt>
      <trkpt lat="43.10731" lon="6.03092">
        <ele>10.23</ele>
        <time>2015-06-28T07:55:03Z</time>
      </trkpt>
      <trkpt lat="43.1071" lon="6.03063">
        <ele>8.79</ele>
        <time>2015-06-28T07:55:09Z</time>
      </trkpt>
      <trkpt lat="43.10667" lon="6.03007">
        <ele>7.35</ele>
        <time>2015-06-28T07:55:21Z</time>
      </trkpt>
      <trkpt lat="43.10665" lon="6.02985">
        <ele>8.79</ele>
        <time>2015-06-28T07:55:25Z</time>
      </trkpt>
      <trkpt lat="43.10692" lon="6.02725">
        <ele>19.36</ele>
        <time>2015-06-28T07:55:47Z</time>
      </trkpt>
      <trkpt lat="43.10665" lon="6.02581">
        <ele>18.4</ele>
        <time>2015-06-28T07:56:08Z</time>
      </trkpt>
      <trkpt lat="43.10667" lon="6.02544">
        <ele>23.69</ele>
        <time>2015-06-28T07:56:18Z</time>
      </trkpt>
      <trkpt lat="43.10668" lon="6.02544">
        <ele>24.65</ele>
        <time>2015-06-28T07:56:19Z</time>
      </trkpt>
      <trkpt lat="43.10691" lon="6.0251">
        <ele>28.98</ele>
        <time>2015-06-28T07:56:29Z</time>
      </trkpt>
      <trkpt lat="43.10699" lon="6.02498">
        <ele>29.94</ele>
        <time>2015-06-28T07:56:31Z</time>
      </trkpt>
      <trkpt lat="43.10725" lon="6.02478">
        <ele>33.3</ele>
        <time>2015-06-28T07:56:35Z</time>
      </trkpt>
      <trkpt lat="43.10857" lon="6.02439">
        <ele>39.55</ele>
        <time>2015-06-28T07:56:53Z</time>
      </trkpt>
      <trkpt lat="43.10897" lon="6.02422">
        <ele>39.07</ele>
        <time>2015-06-28T07:56:58Z</time>
      </trkpt>
      <trkpt lat="43.10978" lon="6.02315">
        <ele>38.59</ele>
        <time>2015-06-28T07:57:13Z</time>
      </trkpt>
      <trkpt lat="43.11017" lon="6.0217">
        <ele>35.71</ele>
        <time>2015-06-28T07:57:29Z</time>
      </trkpt>
      <trkpt lat="43.11038" lon="6.02013">
        <ele>32.82</ele>
        <time>2015-06-28T07:57:46Z</time>
      </trkpt>
      <trkpt lat="43.11055" lon="6.01834">
        <ele>28.98</ele>
        <time>2015-06-28T07:58:08Z</time>
      </trkpt>
      <trkpt lat="43.11066" lon="6.01691">
        <ele>25.13</ele>
        <time>2015-06-28T07:58:25Z</time>
      </trkpt>
      <trkpt lat="43.11042" lon="6.01584">
        <ele>22.73</ele>
        <time>2015-06-28T07:58:39Z</time>
      </trkpt>
      <trkpt lat="43.10979" lon="6.0147">
        <ele>19.84</ele>
        <time>2015-06-28T07:58:56Z</time>
      </trkpt>
      <trkpt lat="43.10892" lon="6.01319">
        <ele>15.52</ele>
        <time>2015-06-28T07:59:20Z</time>
      </trkpt>
      <trkpt lat="43.1085" lon="6.01207">
        <ele>8.31</ele>
        <time>2015-06-28T07:59:39Z</time>
      </trkpt>
      <trkpt lat="43.10841" lon="6.01087">
        <ele>4.46</ele>
        <time>2015-06-28T07:59:54Z</time>
      </trkpt>
      <trkpt lat="43.10845" lon="6.00906">
        <ele>1.1</ele>
        <time>2015-06-28T08:00:15Z</time>
      </trkpt>
      <trkpt lat="43.10844" lon="6.00721">
        <ele>-6.11</ele>
        <time>2015-06-28T08:00:36Z</time>
      </trkpt>
      <trkpt lat="43.10864" lon="6.00522">
        <ele>-14.76</ele>
        <time>2015-06-28T08:00:58Z</time>
      </trkpt>
      <trkpt lat="43.10899" lon="6.00327">
        <ele>-18.61</ele>
        <time>2015-06-28T08:01:20Z</time>
      </trkpt>
      <trkpt lat="43.10934" lon="6.0015">
        <ele>-18.13</ele>
        <time>2015-06-28T08:01:41Z</time>
      </trkpt>
      <trkpt lat="43.10929" lon="6.00027">
        <ele>-28.7</ele>
        <time>2015-06-28T08:02:01Z</time>
      </trkpt>
      <trkpt lat="43.10949" lon="5.99951">
        <ele>-30.14</ele>
        <time>2015-06-28T08:02:17Z</time>
      </trkpt>
      <trkpt lat="43.10965" lon="5.99941">
        <ele>-20.05</ele>
        <time>2015-06-28T08:02:33Z</time>
      </trkpt>
      <trkpt lat="43.10963" lon="5.99937">
        <ele>-10.92</ele>
        <time>2015-06-28T08:02:45Z</time>
      </trkpt>
      <trkpt lat="43.10986" lon="5.99871">
        <ele>-1.79</ele>
        <time>2015-06-28T08:03:00Z</time>
      </trkpt>
      <trkpt lat="43.11025" lon="5.99756">
        <ele>14.56</ele>
        <time>2015-06-28T08:03:17Z</time>
      </trkpt>
      <trkpt lat="43.11073" lon="5.99628">
        <ele>19.36</ele>
        <time>2015-06-28T08:03:35Z</time>
      </trkpt>
      <trkpt lat="43.11143" lon="5.9944">
        <ele>20.32</ele>
        <time>2015-06-28T08:03:54Z</time>
      </trkpt>
      <trkpt lat="43.11174" lon="5.99262">
        <ele>18.88</ele>
        <time>2015-06-28T08:04:09Z</time>
      </trkpt>
      <trkpt lat="43.11178" lon="5.99074">
        <ele>17.44</ele>
        <time>2015-06-28T08:04:26Z</time>
      </trkpt>
      <trkpt lat="43.1118" lon="5.98991">
        <ele>14.56</ele>
        <time>2015-06-28T08:04:36Z</time>
      </trkpt>
      <trkpt lat="43.11221" lon="5.98864">
        <ele>10.71</ele>
        <time>2015-06-28T08:04:54Z</time>
      </trkpt>
      <trkpt lat="43.11241" lon="5.98755">
        <ele>8.79</ele>
        <time>2015-06-28T08:05:12Z</time>
      </trkpt>
      <trkpt lat="43.11293" lon="5.98645">
        <ele>6.39</ele>
        <time>2015-06-28T08:05:27Z</time>
      </trkpt>
      <trkpt lat="43.11385" lon="5.98512">
        <ele>3.02</ele>
        <time>2015-06-28T08:05:46Z</time>
      </trkpt>
      <trkpt lat="43.11495" lon="5.98374">
        <ele>8.31</ele>
        <time>2015-06-28T08:06:05Z</time>
      </trkpt>
      <trkpt lat="43.11541" lon="5.98262">
        <ele>8.31</ele>
        <time>2015-06-28T08:06:18Z</time>
      </trkpt>
      <trkpt lat="43.11552" lon="5.98113">
        <ele>7.35</ele>
        <time>2015-06-28T08:06:34Z</time>
      </trkpt>
      <trkpt lat="43.11551" lon="5.981">
        <ele>6.87</ele>
        <time>2015-06-28T08:06:36Z</time>
      </trkpt>
      <trkpt lat="43.11542" lon="5.98044">
        <ele>6.87</ele>
        <time>2015-06-28T08:06:44Z</time>
      </trkpt>
      <trkpt lat="43.11565" lon="5.97916">
        <ele>7.35</ele>
        <time>2015-06-28T08:06:59Z</time>
      </trkpt>
      <trkpt lat="43.11598" lon="5.9772">
        <ele>4.46</ele>
        <time>2015-06-28T08:07:20Z</time>
      </trkpt>
      <trkpt lat="43.11638" lon="5.97563">
        <ele>2.06</ele>
        <time>2015-06-28T08:07:38Z</time>
      </trkpt>
      <trkpt lat="43.1169" lon="5.97425">
        <ele>-0.34</ele>
        <time>2015-06-28T08:07:56Z</time>
      </trkpt>
      <trkpt lat="43.11703" lon="5.97291">
        <ele>-5.15</ele>
        <time>2015-06-28T08:08:13Z</time>
      </trkpt>
      <trkpt lat="43.11747" lon="5.97195">
        <ele>-9.48</ele>
        <time>2015-06-28T08:08:27Z</time>
      </trkpt>
      <trkpt lat="43.11812" lon="5.97062">
        <ele>-9.48</ele>
        <time>2015-06-28T08:08:44Z</time>
      </trkpt>
      <trkpt lat="43.11912" lon="5.96965">
        <ele>-7.07</ele>
        <time>2015-06-28T08:09:02Z</time>
      </trkpt>
      <trkpt lat="43.11999" lon="5.96868">
        <ele>-6.11</ele>
        <time>2015-06-28T08:09:22Z</time>
      </trkpt>
      <trkpt lat="43.12096" lon="5.96782">
        <ele>-2.75</ele>
        <time>2015-06-28T08:09:41Z</time>
      </trkpt>
      <trkpt lat="43.12187" lon="5.96736">
        <ele>3.02</ele>
        <time>2015-06-28T08:09:53Z</time>
      </trkpt>
      <trkpt lat="43.12239" lon="5.96723">
        <ele>8.31</ele>
        <time>2015-06-28T08:10:03Z</time>
      </trkpt>
      <trkpt lat="43.12264" lon="5.96697">
        <ele>11.19</ele>
        <time>2015-06-28T08:10:09Z</time>
      </trkpt>
      <trkpt lat="43.12271" lon="5.96684">
        <ele>12.15</ele>
        <time>2015-06-28T08:10:11Z</time>
      </trkpt>
      <trkpt lat="43.12291" lon="5.96586">
        <ele>19.36</ele>
        <time>2015-06-28T08:10:24Z</time>
      </trkpt>
      <trkpt lat="43.12282" lon="5.96549">
        <ele>21.77</ele>
        <time>2015-06-28T08:10:29Z</time>
      </trkpt>
      <trkpt lat="43.12255" lon="5.96479">
        <ele>26.09</ele>
        <time>2015-06-28T08:10:39Z</time>
      </trkpt>
      <trkpt lat="43.12219" lon="5.96416">
        <ele>26.09</ele>
        <time>2015-06-28T08:10:51Z</time>
      </trkpt>
      <trkpt lat="43.12212" lon="5.96397">
        <ele>28.5</ele>
        <time>2015-06-28T08:10:56Z</time>
      </trkpt>
      <trkpt lat="43.12224" lon="5.96368">
        <ele>33.3</ele>
        <time>2015-06-28T08:11:01Z</time>
      </trkpt>
      <trkpt lat="43.12303" lon="5.9625">
        <ele>42.44</ele>
        <time>2015-06-28T08:11:21Z</time>
      </trkpt>
      <trkpt lat="43.12337" lon="5.96124">
        <ele>47.24</ele>
        <time>2015-06-28T08:11:37Z</time>
      </trkpt>
      <trkpt lat="43.12337" lon="5.96115">
        <ele>47.24</ele>
        <time>2015-06-28T08:11:38Z</time>
      </trkpt>
      <trkpt lat="43.12316" lon="5.95949">
        <ele>43.4</ele>
        <time>2015-06-28T08:11:55Z</time>
      </trkpt>
      <trkpt lat="43.12248" lon="5.95755">
        <ele>34.74</ele>
        <time>2015-06-28T08:12:16Z</time>
      </trkpt>
      <trkpt lat="43.12197" lon="5.95611">
        <ele>27.05</ele>
        <time>2015-06-28T08:12:34Z</time>
      </trkpt>
      <trkpt lat="43.12176" lon="5.95558">
        <ele>24.17</ele>
        <time>2015-06-28T08:12:44Z</time>
      </trkpt>
      <trkpt lat="43.1215" lon="5.95472">
        <ele>21.29</ele>
        <time>2015-06-28T08:12:58Z</time>
      </trkpt>
      <trkpt lat="43.121" lon="5.9535">
        <ele>18.88</ele>
        <time>2015-06-28T08:13:13Z</time>
      </trkpt>
      <trkpt lat="43.12043" lon="5.9519">
        <ele>16.96</ele>
        <time>2015-06-28T08:13:33Z</time>
      </trkpt>
      <trkpt lat="43.12031" lon="5.95118">
        <ele>16</ele>
        <time>2015-06-28T08:13:42Z</time>
      </trkpt>
      <trkpt lat="43.12012" lon="5.95082">
        <ele>16</ele>
        <time>2015-06-28T08:13:48Z</time>
      </trkpt>
      <trkpt lat="43.11984" lon="5.95016">
        <ele>15.04</ele>
        <time>2015-06-28T08:14:03Z</time>
      </trkpt>
      <trkpt lat="43.11978" lon="5.94968">
        <ele>14.08</ele>
        <time>2015-06-28T08:14:10Z</time>
      </trkpt>
      <trkpt lat="43.11981" lon="5.94942">
        <ele>15.04</ele>
        <time>2015-06-28T08:14:13Z</time>
      </trkpt>
      <trkpt lat="43.11984" lon="5.9492">
        <ele>16</ele>
        <time>2015-06-28T08:14:15Z</time>
      </trkpt>
      <trkpt lat="43.11965" lon="5.94838">
        <ele>16.48</ele>
        <time>2015-06-28T08:14:26Z</time>
      </trkpt>
      <trkpt lat="43.11931" lon="5.94771">
        <ele>16.48</ele>
        <time>2015-06-28T08:14:38Z</time>
      </trkpt>
      <trkpt lat="43.11872" lon="5.94663">
        <ele>16.48</ele>
        <time>2015-06-28T08:14:55Z</time>
      </trkpt>
      <trkpt lat="43.11843" lon="5.94632">
        <ele>15.04</ele>
        <time>2015-06-28T08:15:01Z</time>
      </trkpt>
      <trkpt lat="43.11826" lon="5.94619">
        <ele>15.04</ele>
        <time>2015-06-28T08:15:10Z</time>
      </trkpt>
      <trkpt lat="43.11822" lon="5.94616">
        <ele>15.04</ele>
        <time>2015-06-28T08:15:12Z</time>
      </trkpt>
      <trkpt lat="43.11783" lon="5.94547">
        <ele>15.52</ele>
        <time>2015-06-28T08:15:25Z</time>
      </trkpt>
      <trkpt lat="43.11711" lon="5.94441">
        <ele>14.56</ele>
        <time>2015-06-28T08:15:44Z</time>
      </trkpt>
      <trkpt lat="43.11644" lon="5.94365">
        <ele>12.63</ele>
        <time>2015-06-28T08:16:00Z</time>
      </trkpt>
      <trkpt lat="43.11575" lon="5.94326">
        <ele>12.15</ele>
        <time>2015-06-28T08:16:15Z</time>
      </trkpt>
      <trkpt lat="43.11566" lon="5.94325">
        <ele>11.67</ele>
        <time>2015-06-28T08:16:17Z</time>
      </trkpt>
      <trkpt lat="43.11534" lon="5.94322">
        <ele>12.15</ele>
        <time>2015-06-28T08:16:28Z</time>
      </trkpt>
      <trkpt lat="43.11465" lon="5.94252">
        <ele>14.08</ele>
        <time>2015-06-28T08:16:47Z</time>
      </trkpt>
      <trkpt lat="43.1139" lon="5.94149">
        <ele>14.56</ele>
        <time>2015-06-28T08:17:07Z</time>
      </trkpt>
      <trkpt lat="43.1135" lon="5.94057">
        <ele>11.67</ele>
        <time>2015-06-28T08:17:22Z</time>
      </trkpt>
      <trkpt lat="43.11346" lon="5.94037">
        <ele>7.83</ele>
        <time>2015-06-28T08:17:29Z</time>
      </trkpt>
      <trkpt lat="43.11344" lon="5.94024">
        <ele>6.39</ele>
        <time>2015-06-28T08:17:38Z</time>
      </trkpt>
      <trkpt lat="43.11338" lon="5.94023">
        <ele>5.91</ele>
        <time>2015-06-28T08:17:42Z</time>
      </trkpt>
      <trkpt lat="43.1127" lon="5.94005">
        <ele>7.35</ele>
        <time>2015-06-28T08:18:01Z</time>
      </trkpt>
      <trkpt lat="43.11229" lon="5.93914">
        <ele>9.75</ele>
        <time>2015-06-28T08:18:15Z</time>
      </trkpt>
      <trkpt lat="43.11208" lon="5.93849">
        <ele>9.27</ele>
        <time>2015-06-28T08:18:31Z</time>
      </trkpt>
      <trkpt lat="43.11206" lon="5.93766">
        <ele>16.96</ele>
        <time>2015-06-28T08:18:46Z</time>
      </trkpt>
      <trkpt lat="43.11186" lon="5.93679">
        <ele>21.29</ele>
        <time>2015-06-28T08:19:02Z</time>
      </trkpt>
      <trkpt lat="43.11185" lon="5.93583">
        <ele>21.77</ele>
        <time>2015-06-28T08:19:16Z</time>
      </trkpt>
      <trkpt lat="43.11199" lon="5.93451">
        <ele>17.92</ele>
        <time>2015-06-28T08:19:35Z</time>
      </trkpt>
      <trkpt lat="43.11212" lon="5.93416">
        <ele>18.4</ele>
        <time>2015-06-28T08:19:44Z</time>
      </trkpt>
      <trkpt lat="43.11215" lon="5.93411">
        <ele>18.88</ele>
        <time>2015-06-28T08:19:46Z</time>
      </trkpt>
      <trkpt lat="43.11272" lon="5.93418">
        <ele>22.25</ele>
        <time>2015-06-28T08:19:58Z</time>
      </trkpt>
      <trkpt lat="43.11357" lon="5.93479">
        <ele>27.53</ele>
        <time>2015-06-28T08:20:14Z</time>
      </trkpt>
      <trkpt lat="43.11437" lon="5.93493">
        <ele>34.74</ele>
        <time>2015-06-28T08:20:27Z</time>
      </trkpt>
      <trkpt lat="43.11561" lon="5.93508">
        <ele>44.84</ele>
        <time>2015-06-28T08:20:47Z</time>
      </trkpt>
      <trkpt lat="43.11663" lon="5.93525">
        <ele>44.84</ele>
        <time>2015-06-28T08:21:04Z</time>
      </trkpt>
      <trkpt lat="43.1172" lon="5.93529">
        <ele>44.84</ele>
        <time>2015-06-28T08:21:15Z</time>
      </trkpt>
      <trkpt lat="43.11739" lon="5.93539">
        <ele>44.84</ele>
        <time>2015-06-28T08:21:19Z</time>
      </trkpt>
      <trkpt lat="43.11756" lon="5.93566">
        <ele>43.88</ele>
        <time>2015-06-28T08:21:29Z</time>
      </trkpt>
      <trkpt lat="43.11759" lon="5.93585">
        <ele>41.95</ele>
        <time>2015-06-28T08:21:45Z</time>
      </trkpt>
      <trkpt lat="43.11775" lon="5.93615">
        <ele>40.99</ele>
        <time>2015-06-28T08:21:52Z</time>
      </trkpt>
      <trkpt lat="43.11808" lon="5.93601">
        <ele>39.55</ele>
        <time>2015-06-28T08:22:00Z</time>
      </trkpt>
      <trkpt lat="43.11875" lon="5.93511">
        <ele>37.15</ele>
        <time>2015-06-28T08:22:15Z</time>
      </trkpt>
      <trkpt lat="43.11891" lon="5.93479">
        <ele>39.07</ele>
        <time>2015-06-28T08:22:26Z</time>
      </trkpt>
      <trkpt lat="43.11891" lon="5.93479">
        <ele>39.07</ele>
        <time>2015-06-28T08:22:27Z</time>
      </trkpt>
      <trkpt lat="43.11911" lon="5.9346">
        <ele>47.72</ele>
        <time>2015-06-28T08:22:43Z</time>
      </trkpt>
      <trkpt lat="43.1196" lon="5.93369">
        <ele>61.18</ele>
        <time>2015-06-28T08:22:57Z</time>
      </trkpt>
      <trkpt lat="43.12042" lon="5.93205">
        <ele>75.6</ele>
        <time>2015-06-28T08:23:17Z</time>
      </trkpt>
      <trkpt lat="43.121" lon="5.9308">
        <ele>87.14</ele>
        <time>2015-06-28T08:23:34Z</time>
      </trkpt>
      <trkpt lat="43.12182" lon="5.92889">
        <ele>78.97</ele>
        <time>2015-06-28T08:23:53Z</time>
      </trkpt>
      <trkpt lat="43.12208" lon="5.92869">
        <ele>78</ele>
        <time>2015-06-28T08:23:59Z</time>
      </trkpt>
      <trkpt lat="43.12227" lon="5.92876">
        <ele>73.2</ele>
        <time>2015-06-28T08:24:09Z</time>
      </trkpt>
      <trkpt lat="43.12287" lon="5.92913">
        <ele>70.79</ele>
        <time>2015-06-28T08:24:23Z</time>
      </trkpt>
      <trkpt lat="43.123" lon="5.92909">
        <ele>68.87</ele>
        <time>2015-06-28T08:24:27Z</time>
      </trkpt>
      <trkpt lat="43.12356" lon="5.9281">
        <ele>63.58</ele>
        <time>2015-06-28T08:24:43Z</time>
      </trkpt>
      <trkpt lat="43.12428" lon="5.92644">
        <ele>57.82</ele>
        <time>2015-06-28T08:25:05Z</time>
      </trkpt>
      <trkpt lat="43.12498" lon="5.92486">
        <ele>50.61</ele>
        <time>2015-06-28T08:25:27Z</time>
      </trkpt>
      <trkpt lat="43.12564" lon="5.92335">
        <ele>44.36</ele>
        <time>2015-06-28T08:25:48Z</time>
      </trkpt>
      <trkpt lat="43.12611" lon="5.92215">
        <ele>40.51</ele>
        <time>2015-06-28T08:26:06Z</time>
      </trkpt>
      <trkpt lat="43.12605" lon="5.92221">
        <ele>40.99</ele>
        <time>2015-06-28T08:26:19Z</time>
      </trkpt>
      <trkpt lat="43.12599" lon="5.92224">
        <ele>40.99</ele>
        <time>2015-06-28T08:26:37Z</time>
      </trkpt>
      <trkpt lat="43.12591" lon="5.92197">
        <ele>42.92</ele>
        <time>2015-06-28T08:26:46Z</time>
      </trkpt>
      <trkpt lat="43.12629" lon="5.92119">
        <ele>47.24</ele>
        <time>2015-06-28T08:26:57Z</time>
      </trkpt>
      <trkpt lat="43.12676" lon="5.92001">
        <ele>51.09</ele>
        <time>2015-06-28T08:27:12Z</time>
      </trkpt>
      <trkpt lat="43.12698" lon="5.91912">
        <ele>48.68</ele>
        <time>2015-06-28T08:27:23Z</time>
      </trkpt>
      <trkpt lat="43.12683" lon="5.91796">
        <ele>46.28</ele>
        <time>2015-06-28T08:27:38Z</time>
      </trkpt>
      <trkpt lat="43.12649" lon="5.91678">
        <ele>45.32</ele>
        <time>2015-06-28T08:27:55Z</time>
      </trkpt>
      <trkpt lat="43.12647" lon="5.91672">
        <ele>45.32</ele>
        <time>2015-06-28T08:27:56Z</time>
      </trkpt>
      <trkpt lat="43.12637" lon="5.91649">
        <ele>41.47</ele>
        <time>2015-06-28T08:27:59Z</time>
      </trkpt>
      <trkpt lat="43.12642" lon="5.91521">
        <ele>38.59</ele>
        <time>2015-06-28T08:28:15Z</time>
      </trkpt>
      <trkpt lat="43.12658" lon="5.91437">
        <ele>34.74</ele>
        <time>2015-06-28T08:28:25Z</time>
      </trkpt>
      <trkpt lat="43.1265" lon="5.91411">
        <ele>34.74</ele>
        <time>2015-06-28T08:28:31Z</time>
      </trkpt>
      <trkpt lat="43.12622" lon="5.9141">
        <ele>32.82</ele>
        <time>2015-06-28T08:28:45Z</time>
      </trkpt>
      <trkpt lat="43.12616" lon="5.91379">
        <ele>31.38</ele>
        <time>2015-06-28T08:28:55Z</time>
      </trkpt>
      <trkpt lat="43.12607" lon="5.91343">
        <ele>29.46</ele>
        <time>2015-06-28T08:29:01Z</time>
      </trkpt>
      <trkpt lat="43.12598" lon="5.91077">
        <ele>25.61</ele>
        <time>2015-06-28T08:29:21Z</time>
      </trkpt>
      <trkpt lat="43.12572" lon="5.90944">
        <ele>24.17</ele>
        <time>2015-06-28T08:29:35Z</time>
      </trkpt>
      <trkpt lat="43.12537" lon="5.90854">
        <ele>21.77</ele>
        <time>2015-06-28T08:29:50Z</time>
      </trkpt>
      <trkpt lat="43.12467" lon="5.90732">
        <ele>16.96</ele>
        <time>2015-06-28T08:30:08Z</time>
      </trkpt>
      <trkpt lat="43.12456" lon="5.90709">
        <ele>16</ele>
        <time>2015-06-28T08:30:11Z</time>
      </trkpt>
      <trkpt lat="43.12453" lon="5.90676">
        <ele>14.56</ele>
        <time>2015-06-28T08:30:15Z</time>
      </trkpt>
      <trkpt lat="43.12458" lon="5.90515">
        <ele>11.19</ele>
        <time>2015-06-28T08:30:31Z</time>
      </trkpt>
      <trkpt lat="43.12424" lon="5.9038">
        <ele>9.27</ele>
        <time>2015-06-28T08:30:46Z</time>
      </trkpt>
      <trkpt lat="43.12418" lon="5.9037">
        <ele>8.79</ele>
        <time>2015-06-28T08:30:48Z</time>
      </trkpt>
      <trkpt lat="43.12389" lon="5.90357">
        <ele>11.19</ele>
        <time>2015-06-28T08:30:58Z</time>
      </trkpt>
      <trkpt lat="43.12403" lon="5.90347">
        <ele>15.04</ele>
        <time>2015-06-28T08:31:04Z</time>
      </trkpt>
      <trkpt lat="43.12493" lon="5.9035">
        <ele>21.77</ele>
        <time>2015-06-28T08:31:24Z</time>
      </trkpt>
      <trkpt lat="43.12498" lon="5.90352">
        <ele>21.77</ele>
        <time>2015-06-28T08:31:25Z</time>
      </trkpt>
      <trkpt lat="43.1255" lon="5.90379">
        <ele>22.73</ele>
        <time>2015-06-28T08:31:39Z</time>
      </trkpt>
      <trkpt lat="43.12593" lon="5.90454">
        <ele>32.34</ele>
        <time>2015-06-28T08:31:54Z</time>
      </trkpt>
      <trkpt lat="43.12687" lon="5.90547">
        <ele>32.82</ele>
        <time>2015-06-28T08:32:10Z</time>
      </trkpt>
      <trkpt lat="43.12753" lon="5.90614">
        <ele>33.78</ele>
        <time>2015-06-28T08:32:24Z</time>
      </trkpt>
      <trkpt lat="43.12763" lon="5.90632">
        <ele>34.26</ele>
        <time>2015-06-28T08:32:28Z</time>
      </trkpt>
      <trkpt lat="43.12776" lon="5.90652">
        <ele>33.78</ele>
        <time>2015-06-28T08:32:31Z</time>
      </trkpt>
      <trkpt lat="43.12792" lon="5.90699">
        <ele>32.34</ele>
        <time>2015-06-28T08:32:35Z</time>
      </trkpt>
      <trkpt lat="43.12827" lon="5.90875">
        <ele>31.38</ele>
        <time>2015-06-28T08:32:54Z</time>
      </trkpt>
      <trkpt lat="43.12848" lon="5.90996">
        <ele>31.86</ele>
        <time>2015-06-28T08:33:10Z</time>
      </trkpt>
      <trkpt lat="43.12889" lon="5.90993">
        <ele>34.74</ele>
        <time>2015-06-28T08:33:20Z</time>
      </trkpt>
      <trkpt lat="43.12986" lon="5.9098">
        <ele>37.63</ele>
        <time>2015-06-28T08:33:36Z</time>
      </trkpt>
      <trkpt lat="43.13054" lon="5.90968">
        <ele>38.11</ele>
        <time>2015-06-28T08:33:50Z</time>
      </trkpt>
      <trkpt lat="43.13133" lon="5.90952">
        <ele>37.15</ele>
        <time>2015-06-28T08:34:05Z</time>
      </trkpt>
      <trkpt lat="43.13136" lon="5.90975">
        <ele>33.78</ele>
        <time>2015-06-28T08:34:15Z</time>
      </trkpt>
      <trkpt lat="43.13155" lon="5.90971">
        <ele>34.74</ele>
        <time>2015-06-28T08:34:25Z</time>
      </trkpt>
      <trkpt lat="43.1325" lon="5.9097">
        <ele>36.19</ele>
        <time>2015-06-28T08:34:38Z</time>
      </trkpt>
      <trkpt lat="43.13352" lon="5.90941">
        <ele>26.57</ele>
        <time>2015-06-28T08:34:55Z</time>
      </trkpt>
      <trkpt lat="43.1345" lon="5.90923">
        <ele>22.25</ele>
        <time>2015-06-28T08:35:15Z</time>
      </trkpt>
      <trkpt lat="43.1354" lon="5.90913">
        <ele>22.73</ele>
        <time>2015-06-28T08:35:33Z</time>
      </trkpt>
      <trkpt lat="43.13564" lon="5.909">
        <ele>22.73</ele>
        <time>2015-06-28T08:35:39Z</time>
      </trkpt>
      <trkpt lat="43.13565" lon="5.90895">
        <ele>22.73</ele>
        <time>2015-06-28T08:35:41Z</time>
      </trkpt>
      <trkpt lat="43.13563" lon="5.9082">
        <ele>24.17</ele>
        <time>2015-06-28T08:35:55Z</time>
      </trkpt>
      <trkpt lat="43.13616" lon="5.90808">
        <ele>23.69</ele>
        <time>2015-06-28T08:36:09Z</time>
      </trkpt>
      <trkpt lat="43.1363" lon="5.90809">
        <ele>24.17</ele>
        <time>2015-06-28T08:36:12Z</time>
      </trkpt>
      <trkpt lat="43.13688" lon="5.90816">
        <ele>26.57</ele>
        <time>2015-06-28T08:36:26Z</time>
      </trkpt>
      <trkpt lat="43.13711" lon="5.90812">
        <ele>26.09</ele>
        <time>2015-06-28T08:36:32Z</time>
      </trkpt>
      <trkpt lat="43.13724" lon="5.90809">
        <ele>26.09</ele>
        <time>2015-06-28T08:36:35Z</time>
      </trkpt>
      <trkpt lat="43.13801" lon="5.90851">
        <ele>29.46</ele>
        <time>2015-06-28T08:36:51Z</time>
      </trkpt>
      <trkpt lat="43.13922" lon="5.90941">
        <ele>30.9</ele>
        <time>2015-06-28T08:37:13Z</time>
      </trkpt>
      <trkpt lat="43.14016" lon="5.91008">
        <ele>28.5</ele>
        <time>2015-06-28T08:37:31Z</time>
      </trkpt>
      <trkpt lat="43.14091" lon="5.91052">
        <ele>25.61</ele>
        <time>2015-06-28T08:37:46Z</time>
      </trkpt>
      <trkpt lat="43.14135" lon="5.91049">
        <ele>24.17</ele>
        <time>2015-06-28T08:37:56Z</time>
      </trkpt>
      <trkpt lat="43.14142" lon="5.91081">
        <ele>25.61</ele>
        <time>2015-06-28T08:38:05Z</time>
      </trkpt>
      <trkpt lat="43.14115" lon="5.9109">
        <ele>27.05</ele>
        <time>2015-06-28T08:38:10Z</time>
      </trkpt>
      <trkpt lat="43.14083" lon="5.91092">
        <ele>27.05</ele>
        <time>2015-06-28T08:38:14Z</time>
      </trkpt>
      <trkpt lat="43.14028" lon="5.91092">
        <ele>28.98</ele>
        <time>2015-06-28T08:38:27Z</time>
      </trkpt>
      <trkpt lat="43.13967" lon="5.91087">
        <ele>29.46</ele>
        <time>2015-06-28T08:38:38Z</time>
      </trkpt>
      <trkpt lat="43.13946" lon="5.91096">
        <ele>28.98</ele>
        <time>2015-06-28T08:38:42Z</time>
      </trkpt>
      <trkpt lat="43.13894" lon="5.91161">
        <ele>27.05</ele>
        <time>2015-06-28T08:38:57Z</time>
      </trkpt>
      <trkpt lat="43.13858" lon="5.91211">
        <ele>24.65</ele>
        <time>2015-06-28T08:39:12Z</time>
      </trkpt>
      <trkpt lat="43.13804" lon="5.91257">
        <ele>24.17</ele>
        <time>2015-06-28T08:39:26Z</time>
      </trkpt>
      <trkpt lat="43.13768" lon="5.91306">
        <ele>21.77</ele>
        <time>2015-06-28T08:39:38Z</time>
      </trkpt>
      <trkpt lat="43.13739" lon="5.91325">
        <ele>20.81</ele>
        <time>2015-06-28T08:39:48Z</time>
      </trkpt>
      <trkpt lat="43.137" lon="5.91364">
        <ele>19.84</ele>
        <time>2015-06-28T08:39:58Z</time>
      </trkpt>
      <trkpt lat="43.13675" lon="5.91396">
        <ele>19.36</ele>
        <time>2015-06-28T08:40:09Z</time>
      </trkpt>
      <trkpt lat="43.1363" lon="5.91434">
        <ele>21.29</ele>
        <time>2015-06-28T08:40:26Z</time>
      </trkpt>
      <trkpt lat="43.13568" lon="5.91492">
        <ele>22.73</ele>
        <time>2015-06-28T08:40:39Z</time>
      </trkpt>
      <trkpt lat="43.1349" lon="5.9155">
        <ele>20.32</ele>
        <time>2015-06-28T08:40:55Z</time>
      </trkpt>
      <trkpt lat="43.13494" lon="5.91583">
        <ele>21.29</ele>
        <time>2015-06-28T08:41:03Z</time>
      </trkpt>
      <trkpt lat="43.13495" lon="5.91627">
        <ele>23.69</ele>
        <time>2015-06-28T08:41:16Z</time>
      </trkpt>
      <trkpt lat="43.13501" lon="5.9163">
        <ele>24.17</ele>
        <time>2015-06-28T08:41:23Z</time>
      </trkpt>
      <trkpt lat="43.13548" lon="5.91649">
        <ele>24.65</ele>
        <time>2015-06-28T08:41:44Z</time>
      </trkpt>
      <trkpt lat="43.13566" lon="5.91612">
        <ele>26.09</ele>
        <time>2015-06-28T08:41:55Z</time>
      </trkpt>
      <trkpt lat="43.13561" lon="5.91633">
        <ele>25.61</ele>
        <time>2015-06-28T08:42:00Z</time>
      </trkpt>
      <trkpt lat="43.13582" lon="5.91654">
        <ele>27.05</ele>
        <time>2015-06-28T08:42:10Z</time>
      </trkpt>
      <trkpt lat="43.13641" lon="5.91664">
        <ele>27.53</ele>
        <time>2015-06-28T08:42:27Z</time>
      </trkpt>
      <trkpt lat="43.13686" lon="5.91688">
        <ele>32.82</ele>
        <time>2015-06-28T08:42:42Z</time>
      </trkpt>
      <trkpt lat="43.1371" lon="5.91703">
        <ele>34.26</ele>
        <time>2015-06-28T08:42:54Z</time>
      </trkpt>
      <trkpt lat="43.13711" lon="5.91687">
        <ele>38.59</ele>
        <time>2015-06-28T08:43:10Z</time>
      </trkpt>
      <trkpt lat="43.13707" lon="5.91684">
        <ele>39.55</ele>
        <time>2015-06-28T08:43:16Z</time>
      </trkpt>
      <trkpt lat="43.13709" lon="5.91619">
        <ele>43.4</ele>
        <time>2015-06-28T08:43:35Z</time>
      </trkpt>
      <trkpt lat="43.1378" lon="5.91449">
        <ele>40.51</ele>
        <time>2015-06-28T08:43:55Z</time>
      </trkpt>
      <trkpt lat="43.1379" lon="5.91444">
        <ele>40.99</ele>
        <time>2015-06-28T08:44:04Z</time>
      </trkpt>
      <trkpt lat="43.13786" lon="5.9149">
        <ele>47.24</ele>
        <time>2015-06-28T08:44:26Z</time>
      </trkpt>
      <trkpt lat="43.13782" lon="5.91542">
        <ele>52.05</ele>
        <time>2015-06-28T08:44:46Z</time>
      </trkpt>
      <trkpt lat="43.13771" lon="5.91621">
        <ele>61.18</ele>
        <time>2015-06-28T08:45:05Z</time>
      </trkpt>
      <trkpt lat="43.13776" lon="5.91689">
        <ele>63.58</ele>
        <time>2015-06-28T08:45:20Z</time>
      </trkpt>
      <trkpt lat="43.13817" lon="5.91717">
        <ele>66.47</ele>
        <time>2015-06-28T08:45:38Z</time>
      </trkpt>
      <trkpt lat="43.13846" lon="5.91704">
        <ele>69.35</ele>
        <time>2015-06-28T08:45:50Z</time>
      </trkpt>
      <trkpt lat="43.13847" lon="5.91692">
        <ele>69.83</ele>
        <time>2015-06-28T08:45:54Z</time>
      </trkpt>
      <trkpt lat="43.13832" lon="5.91646">
        <ele>74.64</ele>
        <time>2015-06-28T08:46:10Z</time>
      </trkpt>
      <trkpt lat="43.13828" lon="5.91618">
        <ele>75.12</ele>
        <time>2015-06-28T08:46:24Z</time>
      </trkpt>
      <trkpt lat="43.13829" lon="5.91607">
        <ele>74.64</ele>
        <time>2015-06-28T08:46:27Z</time>
      </trkpt>
      <trkpt lat="43.1387" lon="5.91547">
        <ele>78.97</ele>
        <time>2015-06-28T08:46:40Z</time>
      </trkpt>
      <trkpt lat="43.13865" lon="5.91486">
        <ele>77.52</ele>
        <time>2015-06-28T08:46:57Z</time>
      </trkpt>
      <trkpt lat="43.13865" lon="5.91485">
        <ele>77.52</ele>
        <time>2015-06-28T08:47:17Z</time>
      </trkpt>
      <trkpt lat="43.13875" lon="5.91476">
        <ele>75.12</ele>
        <time>2015-06-28T08:47:36Z</time>
      </trkpt>
      <trkpt lat="43.13877" lon="5.9147">
        <ele>71.76</ele>
        <time>2015-06-28T08:47:57Z</time>
      </trkpt>
      <trkpt lat="43.1388" lon="5.91462">
        <ele>73.68</ele>
        <time>2015-06-28T08:48:26Z</time>
      </trkpt>
      <trkpt lat="43.13882" lon="5.91457">
        <ele>73.2</ele>
        <time>2015-06-28T08:48:46Z</time>
      </trkpt>
      <trkpt lat="43.13881" lon="5.91462">
        <ele>68.87</ele>
        <time>2015-06-28T08:49:06Z</time>
      </trkpt>
      <trkpt lat="43.13882" lon="5.91465">
        <ele>65.99</ele>
        <time>2015-06-28T08:49:28Z</time>
      </trkpt>
    </trkseg>
  </trk>
</gpx>